<?xml version="1.0" encoding="UTF-8" standalone="no" ?>
<gpx xmlns="http://www.topografix.com/GPX/1/1" xmlns:xsi="http://www.w3.org/2001/XMLSchema-instance" xsi:schemaLocation="http://www.topografix.com/GPX/1/1 http://www.topografix.com/GPX/1/1/gpx.xsd" version="1.1" creator="VisuGPX - https://www.visugpx.com">
  <metadata>
    <name>GTPR jour 2</name>
  </metadata>
  <trk>
    <name><![CDATA[9934839-GTPR jour2]]></name>
    <trkseg>
      <trkpt lat="44.84528" lon="5.58014">
        <ele>1022</ele>
        <time>2019-05-09T11:23:28Z</time>
      </trkpt>
      <trkpt lat="44.8447" lon="5.58001">
        <ele>1019</ele>
        <time>2019-05-09T11:24:28Z</time>
      </trkpt>
      <trkpt lat="44.84399" lon="5.58055">
        <ele>1016</ele>
        <time>2019-05-09T11:25:28Z</time>
      </trkpt>
      <trkpt lat="44.84326" lon="5.58064">
        <ele>1017</ele>
        <time>2019-05-09T11:26:28Z</time>
      </trkpt>
      <trkpt lat="44.84263" lon="5.58085">
        <ele>1017</ele>
        <time>2019-05-09T11:27:28Z</time>
      </trkpt>
      <trkpt lat="44.84168" lon="5.58066">
        <ele>1027</ele>
        <time>2019-05-09T11:28:28Z</time>
      </trkpt>
      <trkpt lat="44.84094" lon="5.58027">
        <ele>1029</ele>
        <time>2019-05-09T11:29:28Z</time>
      </trkpt>
      <trkpt lat="44.84015" lon="5.57944">
        <ele>1032</ele>
        <time>2019-05-09T11:30:28Z</time>
      </trkpt>
      <trkpt lat="44.83912" lon="5.57894">
        <ele>1028</ele>
        <time>2019-05-09T11:31:28Z</time>
      </trkpt>
      <trkpt lat="44.8383" lon="5.57876">
        <ele>1026</ele>
        <time>2019-05-09T11:32:28Z</time>
      </trkpt>
      <trkpt lat="44.83769" lon="5.57897">
        <ele>1031</ele>
        <time>2019-05-09T11:33:28Z</time>
      </trkpt>
      <trkpt lat="44.83741" lon="5.5797">
        <ele>1022</ele>
        <time>2019-05-09T11:34:28Z</time>
      </trkpt>
      <trkpt lat="44.83761" lon="5.58049">
        <ele>1011</ele>
        <time>2019-05-09T11:35:28Z</time>
      </trkpt>
      <trkpt lat="44.83725" lon="5.58078">
        <ele>1006</ele>
        <time>2019-05-09T11:36:28Z</time>
      </trkpt>
      <trkpt lat="44.83677" lon="5.58034">
        <ele>1012</ele>
        <time>2019-05-09T11:37:28Z</time>
      </trkpt>
      <trkpt lat="44.836" lon="5.58034">
        <ele>1011</ele>
        <time>2019-05-09T11:38:28Z</time>
      </trkpt>
      <trkpt lat="44.83523" lon="5.58114">
        <ele>992</ele>
        <time>2019-05-09T11:39:28Z</time>
      </trkpt>
      <trkpt lat="44.8349" lon="5.58074">
        <ele>999</ele>
        <time>2019-05-09T11:40:28Z</time>
      </trkpt>
      <trkpt lat="44.83447" lon="5.58049">
        <ele>992</ele>
        <time>2019-05-09T11:41:28Z</time>
      </trkpt>
      <trkpt lat="44.83467" lon="5.5797">
        <ele>1000</ele>
        <time>2019-05-09T11:42:28Z</time>
      </trkpt>
      <trkpt lat="44.83398" lon="5.57912">
        <ele>991</ele>
        <time>2019-05-09T11:43:28Z</time>
      </trkpt>
      <trkpt lat="44.83303" lon="5.57887">
        <ele>987</ele>
        <time>2019-05-09T11:44:28Z</time>
      </trkpt>
      <trkpt lat="44.83193" lon="5.57941">
        <ele>983</ele>
        <time>2019-05-09T11:45:28Z</time>
      </trkpt>
      <trkpt lat="44.83075" lon="5.57984">
        <ele>981</ele>
        <time>2019-05-09T11:46:28Z</time>
      </trkpt>
      <trkpt lat="44.8295" lon="5.58024">
        <ele>978</ele>
        <time>2019-05-09T11:47:28Z</time>
      </trkpt>
      <trkpt lat="44.82858" lon="5.58067">
        <ele>978</ele>
        <time>2019-05-09T11:48:28Z</time>
      </trkpt>
      <trkpt lat="44.82712" lon="5.58219">
        <ele>971</ele>
        <time>2019-05-09T11:49:28Z</time>
      </trkpt>
      <trkpt lat="44.82656" lon="5.58107">
        <ele>973</ele>
        <time>2019-05-09T11:50:28Z</time>
      </trkpt>
      <trkpt lat="44.82625" lon="5.58107">
        <ele>971</ele>
        <time>2019-05-09T11:51:28Z</time>
      </trkpt>
      <trkpt lat="44.82581" lon="5.58136">
        <ele>965</ele>
        <time>2019-05-09T11:52:28Z</time>
      </trkpt>
      <trkpt lat="44.82564" lon="5.58071">
        <ele>969</ele>
        <time>2019-05-09T11:53:28Z</time>
      </trkpt>
      <trkpt lat="44.82543" lon="5.58085">
        <ele>967</ele>
        <time>2019-05-09T11:54:28Z</time>
      </trkpt>
      <trkpt lat="44.82533" lon="5.58136">
        <ele>960</ele>
        <time>2019-05-09T11:55:28Z</time>
      </trkpt>
      <trkpt lat="44.82492" lon="5.58139">
        <ele>955</ele>
        <time>2019-05-09T11:56:28Z</time>
      </trkpt>
      <trkpt lat="44.82471" lon="5.58092">
        <ele>960</ele>
        <time>2019-05-09T11:57:28Z</time>
      </trkpt>
      <trkpt lat="44.82326" lon="5.58096">
        <ele>946</ele>
        <time>2019-05-09T11:58:28Z</time>
      </trkpt>
      <trkpt lat="44.82269" lon="5.57966">
        <ele>954</ele>
        <time>2019-05-09T11:59:28Z</time>
      </trkpt>
      <trkpt lat="44.82218" lon="5.57977">
        <ele>948</ele>
        <time>2019-05-09T12:00:28Z</time>
      </trkpt>
      <trkpt lat="44.82149" lon="5.57814">
        <ele>956</ele>
        <time>2019-05-09T12:01:28Z</time>
      </trkpt>
      <trkpt lat="44.82162" lon="5.57735">
        <ele>961</ele>
        <time>2019-05-09T12:02:28Z</time>
      </trkpt>
      <trkpt lat="44.82221" lon="5.57681">
        <ele>960</ele>
        <time>2019-05-09T12:03:28Z</time>
      </trkpt>
      <trkpt lat="44.82215" lon="5.57619">
        <ele>960</ele>
        <time>2019-05-09T12:04:28Z</time>
      </trkpt>
      <trkpt lat="44.82203" lon="5.57533">
        <ele>959</ele>
        <time>2019-05-09T12:05:28Z</time>
      </trkpt>
      <trkpt lat="44.82241" lon="5.57435">
        <ele>958</ele>
        <time>2019-05-09T12:06:28Z</time>
      </trkpt>
      <trkpt lat="44.82302" lon="5.57125">
        <ele>966</ele>
        <time>2019-05-09T12:07:28Z</time>
      </trkpt>
      <trkpt lat="44.82279" lon="5.56826">
        <ele>974</ele>
        <time>2019-05-09T12:08:28Z</time>
      </trkpt>
      <trkpt lat="44.82287" lon="5.56613">
        <ele>980</ele>
        <time>2019-05-09T12:09:28Z</time>
      </trkpt>
      <trkpt lat="44.82251" lon="5.56461">
        <ele>985</ele>
        <time>2019-05-09T12:10:28Z</time>
      </trkpt>
      <trkpt lat="44.82218" lon="5.56371">
        <ele>988</ele>
        <time>2019-05-09T12:11:28Z</time>
      </trkpt>
      <trkpt lat="44.82277" lon="5.55934">
        <ele>1005</ele>
        <time>2019-05-09T12:12:28Z</time>
      </trkpt>
      <trkpt lat="44.82292" lon="5.55754">
        <ele>1011</ele>
        <time>2019-05-09T12:13:28Z</time>
      </trkpt>
      <trkpt lat="44.82282" lon="5.55335">
        <ele>1021</ele>
        <time>2019-05-09T12:14:28Z</time>
      </trkpt>
      <trkpt lat="44.82116" lon="5.55393">
        <ele>1025</ele>
        <time>2019-05-09T12:15:28Z</time>
      </trkpt>
      <trkpt lat="44.82087" lon="5.55523">
        <ele>1018</ele>
        <time>2019-05-09T12:16:28Z</time>
      </trkpt>
      <trkpt lat="44.8199" lon="5.55786">
        <ele>1020</ele>
        <time>2019-05-09T12:17:28Z</time>
      </trkpt>
      <trkpt lat="44.81947" lon="5.55974">
        <ele>1041</ele>
        <time>2019-05-09T12:18:28Z</time>
      </trkpt>
      <trkpt lat="44.81947" lon="5.56374">
        <ele>1029</ele>
        <time>2019-05-09T12:19:28Z</time>
      </trkpt>
      <trkpt lat="44.81867" lon="5.56454">
        <ele>1036</ele>
        <time>2019-05-09T12:20:28Z</time>
      </trkpt>
      <trkpt lat="44.81734" lon="5.56974">
        <ele>1007</ele>
        <time>2019-05-09T12:21:28Z</time>
      </trkpt>
      <trkpt lat="44.81647" lon="5.57147">
        <ele>1001</ele>
        <time>2019-05-09T12:22:28Z</time>
      </trkpt>
      <trkpt lat="44.81517" lon="5.5723">
        <ele>995</ele>
        <time>2019-05-09T12:23:28Z</time>
      </trkpt>
      <trkpt lat="44.81227" lon="5.5728">
        <ele>993</ele>
        <time>2019-05-09T12:24:28Z</time>
      </trkpt>
      <trkpt lat="44.81145" lon="5.57262">
        <ele>992</ele>
        <time>2019-05-09T12:25:28Z</time>
      </trkpt>
      <trkpt lat="44.81151" lon="5.57363">
        <ele>987</ele>
        <time>2019-05-09T12:26:28Z</time>
      </trkpt>
      <trkpt lat="44.81227" lon="5.57573">
        <ele>981</ele>
        <time>2019-05-09T12:27:28Z</time>
      </trkpt>
      <trkpt lat="44.81227" lon="5.57923">
        <ele>976</ele>
        <time>2019-05-09T12:28:28Z</time>
      </trkpt>
      <trkpt lat="44.8113" lon="5.58247">
        <ele>966</ele>
        <time>2019-05-09T12:29:28Z</time>
      </trkpt>
      <trkpt lat="44.80969" lon="5.58475">
        <ele>981</ele>
        <time>2019-05-09T12:30:28Z</time>
      </trkpt>
      <trkpt lat="44.80815" lon="5.58608">
        <ele>992</ele>
        <time>2019-05-09T12:31:28Z</time>
      </trkpt>
      <trkpt lat="44.80654" lon="5.58717">
        <ele>1012</ele>
        <time>2019-05-09T12:32:28Z</time>
      </trkpt>
      <trkpt lat="44.80462" lon="5.5876">
        <ele>1016</ele>
        <time>2019-05-09T12:33:28Z</time>
      </trkpt>
      <trkpt lat="44.80405" lon="5.58857">
        <ele>1031</ele>
        <time>2019-05-09T12:34:28Z</time>
      </trkpt>
      <trkpt lat="44.80267" lon="5.58944">
        <ele>1037</ele>
        <time>2019-05-09T12:35:28Z</time>
      </trkpt>
      <trkpt lat="44.80088" lon="5.59106">
        <ele>1060</ele>
        <time>2019-05-09T12:36:28Z</time>
      </trkpt>
      <trkpt lat="44.80019" lon="5.59092">
        <ele>1075</ele>
        <time>2019-05-09T12:37:28Z</time>
      </trkpt>
      <trkpt lat="44.79916" lon="5.58911">
        <ele>1077</ele>
        <time>2019-05-09T12:38:28Z</time>
      </trkpt>
      <trkpt lat="44.79768" lon="5.59009">
        <ele>1090</ele>
        <time>2019-05-09T12:39:28Z</time>
      </trkpt>
      <trkpt lat="44.79507" lon="5.59233">
        <ele>1107</ele>
        <time>2019-05-09T12:40:28Z</time>
      </trkpt>
      <trkpt lat="44.79496" lon="5.59316">
        <ele>1122</ele>
        <time>2019-05-09T12:41:28Z</time>
      </trkpt>
      <trkpt lat="44.79425" lon="5.5937">
        <ele>1130</ele>
        <time>2019-05-09T12:42:28Z</time>
      </trkpt>
      <trkpt lat="44.79348" lon="5.59312">
        <ele>1121</ele>
        <time>2019-05-09T12:43:28Z</time>
      </trkpt>
      <trkpt lat="44.79071" lon="5.59514">
        <ele>1158</ele>
        <time>2019-05-09T12:44:28Z</time>
      </trkpt>
      <trkpt lat="44.79002" lon="5.59514">
        <ele>1155</ele>
        <time>2019-05-09T12:45:28Z</time>
      </trkpt>
      <trkpt lat="44.78761" lon="5.59828">
        <ele>1189</ele>
        <time>2019-05-09T12:46:28Z</time>
      </trkpt>
      <trkpt lat="44.78518" lon="5.59879">
        <ele>1201</ele>
        <time>2019-05-09T12:47:28Z</time>
      </trkpt>
      <trkpt lat="44.78459" lon="5.59785">
        <ele>1204</ele>
        <time>2019-05-09T12:48:28Z</time>
      </trkpt>
      <trkpt lat="44.78362" lon="5.59731">
        <ele>1203</ele>
        <time>2019-05-09T12:49:28Z</time>
      </trkpt>
      <trkpt lat="44.78323" lon="5.59453">
        <ele>1240</ele>
        <time>2019-05-09T12:50:28Z</time>
      </trkpt>
      <trkpt lat="44.78259" lon="5.59532">
        <ele>1228</ele>
        <time>2019-05-09T12:51:28Z</time>
      </trkpt>
      <trkpt lat="44.78162" lon="5.59601">
        <ele>1222</ele>
        <time>2019-05-09T12:52:28Z</time>
      </trkpt>
      <trkpt lat="44.78124" lon="5.59575">
        <ele>1224</ele>
        <time>2019-05-09T12:53:28Z</time>
      </trkpt>
      <trkpt lat="44.7808" lon="5.59355">
        <ele>1250</ele>
        <time>2019-05-09T12:54:28Z</time>
      </trkpt>
      <trkpt lat="44.78054" lon="5.59413">
        <ele>1246</ele>
        <time>2019-05-09T12:55:28Z</time>
      </trkpt>
      <trkpt lat="44.7797" lon="5.59648">
        <ele>1227</ele>
        <time>2019-05-09T12:56:28Z</time>
      </trkpt>
      <trkpt lat="44.77893" lon="5.59287">
        <ele>1250</ele>
        <time>2019-05-09T12:57:28Z</time>
      </trkpt>
      <trkpt lat="44.77903" lon="5.59132">
        <ele>1273</ele>
        <time>2019-05-09T12:58:28Z</time>
      </trkpt>
      <trkpt lat="44.7786" lon="5.59128">
        <ele>1270</ele>
        <time>2019-05-09T12:59:28Z</time>
      </trkpt>
      <trkpt lat="44.77783" lon="5.59178">
        <ele>1254</ele>
        <time>2019-05-09T13:00:28Z</time>
      </trkpt>
      <trkpt lat="44.7767" lon="5.59056">
        <ele>1280</ele>
        <time>2019-05-09T13:01:28Z</time>
      </trkpt>
      <trkpt lat="44.77655" lon="5.59139">
        <ele>1270</ele>
        <time>2019-05-09T13:02:28Z</time>
      </trkpt>
      <trkpt lat="44.77606" lon="5.59128">
        <ele>1286</ele>
        <time>2019-05-09T13:03:28Z</time>
      </trkpt>
      <trkpt lat="44.77616" lon="5.59254">
        <ele>1277</ele>
        <time>2019-05-09T13:04:28Z</time>
      </trkpt>
      <trkpt lat="44.77616" lon="5.59312">
        <ele>1272</ele>
        <time>2019-05-09T13:05:28Z</time>
      </trkpt>
      <trkpt lat="44.77586" lon="5.59319">
        <ele>1281</ele>
        <time>2019-05-09T13:06:28Z</time>
      </trkpt>
      <trkpt lat="44.77558" lon="5.59395">
        <ele>1267</ele>
        <time>2019-05-09T13:07:28Z</time>
      </trkpt>
      <trkpt lat="44.77529" lon="5.59308">
        <ele>1278</ele>
        <time>2019-05-09T13:08:28Z</time>
      </trkpt>
      <trkpt lat="44.77478" lon="5.59218">
        <ele>1286</ele>
        <time>2019-05-09T13:09:28Z</time>
      </trkpt>
      <trkpt lat="44.77447" lon="5.59146">
        <ele>1291</ele>
        <time>2019-05-09T13:10:28Z</time>
      </trkpt>
      <trkpt lat="44.77417" lon="5.59095">
        <ele>1296</ele>
        <time>2019-05-09T13:11:28Z</time>
      </trkpt>
      <trkpt lat="44.77358" lon="5.5907">
        <ele>1282</ele>
        <time>2019-05-09T13:12:28Z</time>
      </trkpt>
      <trkpt lat="44.77355" lon="5.58991">
        <ele>1295</ele>
        <time>2019-05-09T13:13:28Z</time>
      </trkpt>
      <trkpt lat="44.77322" lon="5.58767">
        <ele>1316</ele>
        <time>2019-05-09T13:14:28Z</time>
      </trkpt>
      <trkpt lat="44.77296" lon="5.58796">
        <ele>1319</ele>
        <time>2019-05-09T13:15:28Z</time>
      </trkpt>
      <trkpt lat="44.77278" lon="5.58915">
        <ele>1303</ele>
        <time>2019-05-09T13:16:28Z</time>
      </trkpt>
      <trkpt lat="44.77237" lon="5.58944">
        <ele>1313</ele>
        <time>2019-05-09T13:17:28Z</time>
      </trkpt>
      <trkpt lat="44.77191" lon="5.59121">
        <ele>1299</ele>
        <time>2019-05-09T13:18:28Z</time>
      </trkpt>
      <trkpt lat="44.77117" lon="5.59034">
        <ele>1325</ele>
        <time>2019-05-09T13:19:28Z</time>
      </trkpt>
      <trkpt lat="44.77066" lon="5.59016">
        <ele>1329</ele>
        <time>2019-05-09T13:20:28Z</time>
      </trkpt>
      <trkpt lat="44.77063" lon="5.58969">
        <ele>1341</ele>
        <time>2019-05-09T13:21:28Z</time>
      </trkpt>
      <trkpt lat="44.77025" lon="5.59009">
        <ele>1333</ele>
        <time>2019-05-09T13:22:28Z</time>
      </trkpt>
      <trkpt lat="44.76979" lon="5.59034">
        <ele>1333</ele>
        <time>2019-05-09T13:23:28Z</time>
      </trkpt>
      <trkpt lat="44.7693" lon="5.59056">
        <ele>1339</ele>
        <time>2019-05-09T13:24:28Z</time>
      </trkpt>
      <trkpt lat="44.76894" lon="5.59077">
        <ele>1342</ele>
        <time>2019-05-09T13:25:28Z</time>
      </trkpt>
      <trkpt lat="44.76866" lon="5.59063">
        <ele>1354</ele>
        <time>2019-05-09T13:26:28Z</time>
      </trkpt>
      <trkpt lat="44.76843" lon="5.59121">
        <ele>1345</ele>
        <time>2019-05-09T13:27:28Z</time>
      </trkpt>
      <trkpt lat="44.76771" lon="5.59236">
        <ele>1335</ele>
        <time>2019-05-09T13:28:28Z</time>
      </trkpt>
      <trkpt lat="44.76707" lon="5.59236">
        <ele>1331</ele>
        <time>2019-05-09T13:29:28Z</time>
      </trkpt>
      <trkpt lat="44.76612" lon="5.59041">
        <ele>1379</ele>
        <time>2019-05-09T13:30:28Z</time>
      </trkpt>
      <trkpt lat="44.76561" lon="5.59088">
        <ele>1366</ele>
        <time>2019-05-09T13:31:28Z</time>
      </trkpt>
      <trkpt lat="44.76558" lon="5.59171">
        <ele>1354</ele>
        <time>2019-05-09T13:32:28Z</time>
      </trkpt>
      <trkpt lat="44.76489" lon="5.59446">
        <ele>1365</ele>
        <time>2019-05-09T13:33:28Z</time>
      </trkpt>
      <trkpt lat="44.7641" lon="5.59489">
        <ele>1399</ele>
        <time>2019-05-09T13:34:28Z</time>
      </trkpt>
      <trkpt lat="44.76376" lon="5.59579">
        <ele>1398</ele>
        <time>2019-05-09T13:35:28Z</time>
      </trkpt>
      <trkpt lat="44.76374" lon="5.59669">
        <ele>1384</ele>
        <time>2019-05-09T13:36:28Z</time>
      </trkpt>
      <trkpt lat="44.76274" lon="5.59857">
        <ele>1389</ele>
        <time>2019-05-09T13:37:28Z</time>
      </trkpt>
      <trkpt lat="44.7623" lon="5.59886">
        <ele>1407</ele>
        <time>2019-05-09T13:38:28Z</time>
      </trkpt>
      <trkpt lat="44.76246" lon="5.59962">
        <ele>1382</ele>
        <time>2019-05-09T13:39:28Z</time>
      </trkpt>
      <trkpt lat="44.76202" lon="5.60016">
        <ele>1392</ele>
        <time>2019-05-09T13:40:28Z</time>
      </trkpt>
      <trkpt lat="44.76128" lon="5.60135">
        <ele>1408</ele>
        <time>2019-05-09T13:41:28Z</time>
      </trkpt>
      <trkpt lat="44.76148" lon="5.60218">
        <ele>1393</ele>
        <time>2019-05-09T13:42:28Z</time>
      </trkpt>
      <trkpt lat="44.76125" lon="5.60265">
        <ele>1403</ele>
        <time>2019-05-09T13:43:28Z</time>
      </trkpt>
      <trkpt lat="44.7612" lon="5.60398">
        <ele>1388</ele>
        <time>2019-05-09T13:44:28Z</time>
      </trkpt>
      <trkpt lat="44.76092" lon="5.60452">
        <ele>1392</ele>
        <time>2019-05-09T13:45:28Z</time>
      </trkpt>
      <trkpt lat="44.76061" lon="5.60481">
        <ele>1390</ele>
        <time>2019-05-09T13:46:28Z</time>
      </trkpt>
      <trkpt lat="44.76038" lon="5.60387">
        <ele>1417</ele>
        <time>2019-05-09T13:47:28Z</time>
      </trkpt>
      <trkpt lat="44.75895" lon="5.60481">
        <ele>1424</ele>
        <time>2019-05-09T13:48:28Z</time>
      </trkpt>
      <trkpt lat="44.7571" lon="5.60232">
        <ele>1412</ele>
        <time>2019-05-09T13:49:28Z</time>
      </trkpt>
      <trkpt lat="44.75687" lon="5.60012">
        <ele>1398</ele>
        <time>2019-05-09T13:50:28Z</time>
      </trkpt>
      <trkpt lat="44.75638" lon="5.59969">
        <ele>1378</ele>
        <time>2019-05-09T13:51:28Z</time>
      </trkpt>
      <trkpt lat="44.75613" lon="5.59857">
        <ele>1385</ele>
        <time>2019-05-09T13:52:28Z</time>
      </trkpt>
      <trkpt lat="44.75569" lon="5.59799">
        <ele>1369</ele>
        <time>2019-05-09T13:53:28Z</time>
      </trkpt>
      <trkpt lat="44.75597" lon="5.59637">
        <ele>1378</ele>
        <time>2019-05-09T13:54:28Z</time>
      </trkpt>
      <trkpt lat="44.75546" lon="5.59489">
        <ele>1364</ele>
        <time>2019-05-09T13:55:28Z</time>
      </trkpt>
      <trkpt lat="44.75485" lon="5.59431">
        <ele>1351</ele>
        <time>2019-05-09T13:56:28Z</time>
      </trkpt>
      <trkpt lat="44.75474" lon="5.5933">
        <ele>1342</ele>
        <time>2019-05-09T13:57:28Z</time>
      </trkpt>
      <trkpt lat="44.75508" lon="5.59247">
        <ele>1348</ele>
        <time>2019-05-09T13:58:28Z</time>
      </trkpt>
      <trkpt lat="44.75472" lon="5.59175">
        <ele>1341</ele>
        <time>2019-05-09T13:59:28Z</time>
      </trkpt>
      <trkpt lat="44.75459" lon="5.59056">
        <ele>1341</ele>
        <time>2019-05-09T14:00:28Z</time>
      </trkpt>
      <trkpt lat="44.75459" lon="5.58994">
        <ele>1345</ele>
        <time>2019-05-09T14:01:28Z</time>
      </trkpt>
      <trkpt lat="44.75477" lon="5.5885">
        <ele>1362</ele>
        <time>2019-05-09T14:02:28Z</time>
      </trkpt>
      <trkpt lat="44.75426" lon="5.58868">
        <ele>1355</ele>
        <time>2019-05-09T14:03:28Z</time>
      </trkpt>
      <trkpt lat="44.7529" lon="5.58994">
        <ele>1308</ele>
        <time>2019-05-09T14:04:28Z</time>
      </trkpt>
      <trkpt lat="44.75172" lon="5.58774">
        <ele>1328</ele>
        <time>2019-05-09T14:05:28Z</time>
      </trkpt>
      <trkpt lat="44.7508" lon="5.58695">
        <ele>1307</ele>
        <time>2019-05-09T14:06:28Z</time>
      </trkpt>
      <trkpt lat="44.75036" lon="5.58616">
        <ele>1303</ele>
        <time>2019-05-09T14:07:28Z</time>
      </trkpt>
      <trkpt lat="44.75041" lon="5.58688">
        <ele>1291</ele>
        <time>2019-05-09T14:08:28Z</time>
      </trkpt>
      <trkpt lat="44.75126" lon="5.58832">
        <ele>1292</ele>
        <time>2019-05-09T14:09:28Z</time>
      </trkpt>
      <trkpt lat="44.75228" lon="5.59103">
        <ele>1265</ele>
        <time>2019-05-09T14:10:28Z</time>
      </trkpt>
      <trkpt lat="44.75344" lon="5.59088">
        <ele>1286</ele>
        <time>2019-05-09T14:11:28Z</time>
      </trkpt>
      <trkpt lat="44.75264" lon="5.59132">
        <ele>1268</ele>
        <time>2019-05-09T14:12:28Z</time>
      </trkpt>
      <trkpt lat="44.7521" lon="5.59135">
        <ele>1250</ele>
        <time>2019-05-09T14:13:28Z</time>
      </trkpt>
      <trkpt lat="44.75159" lon="5.59038">
        <ele>1254</ele>
        <time>2019-05-09T14:14:28Z</time>
      </trkpt>
      <trkpt lat="44.75103" lon="5.58951">
        <ele>1259</ele>
        <time>2019-05-09T14:15:28Z</time>
      </trkpt>
      <trkpt lat="44.75064" lon="5.5898">
        <ele>1241</ele>
        <time>2019-05-09T14:16:28Z</time>
      </trkpt>
      <trkpt lat="44.74941" lon="5.58872">
        <ele>1226</ele>
        <time>2019-05-09T14:17:28Z</time>
      </trkpt>
      <trkpt lat="44.74908" lon="5.58543">
        <ele>1229</ele>
        <time>2019-05-09T14:18:28Z</time>
      </trkpt>
      <trkpt lat="44.749" lon="5.58276">
        <ele>1218</ele>
        <time>2019-05-09T14:19:28Z</time>
      </trkpt>
      <trkpt lat="44.7488" lon="5.58222">
        <ele>1213</ele>
        <time>2019-05-09T14:20:28Z</time>
      </trkpt>
      <trkpt lat="44.74847" lon="5.58096">
        <ele>1215</ele>
        <time>2019-05-09T14:21:28Z</time>
      </trkpt>
      <trkpt lat="44.74772" lon="5.58132">
        <ele>1189</ele>
        <time>2019-05-09T14:22:28Z</time>
      </trkpt>
      <trkpt lat="44.74752" lon="5.58042">
        <ele>1198</ele>
        <time>2019-05-09T14:23:28Z</time>
      </trkpt>
      <trkpt lat="44.74667" lon="5.57923">
        <ele>1189</ele>
        <time>2019-05-09T14:24:28Z</time>
      </trkpt>
      <trkpt lat="44.74567" lon="5.57897">
        <ele>1168</ele>
        <time>2019-05-09T14:25:28Z</time>
      </trkpt>
      <trkpt lat="44.74526" lon="5.57843">
        <ele>1163</ele>
        <time>2019-05-09T14:26:28Z</time>
      </trkpt>
      <trkpt lat="44.7457" lon="5.57771">
        <ele>1170</ele>
        <time>2019-05-09T14:27:28Z</time>
      </trkpt>
      <trkpt lat="44.74539" lon="5.57742">
        <ele>1165</ele>
        <time>2019-05-09T14:28:28Z</time>
      </trkpt>
      <trkpt lat="44.74472" lon="5.57789">
        <ele>1150</ele>
        <time>2019-05-09T14:29:28Z</time>
      </trkpt>
      <trkpt lat="44.74421" lon="5.57728">
        <ele>1146</ele>
        <time>2019-05-09T14:30:28Z</time>
      </trkpt>
      <trkpt lat="44.74436" lon="5.5763">
        <ele>1141</ele>
        <time>2019-05-09T14:31:28Z</time>
      </trkpt>
      <trkpt lat="44.74539" lon="5.57508">
        <ele>1134</ele>
        <time>2019-05-09T14:32:28Z</time>
      </trkpt>
      <trkpt lat="44.7468" lon="5.57475">
        <ele>1148</ele>
        <time>2019-05-09T14:33:28Z</time>
      </trkpt>
      <trkpt lat="44.74593" lon="5.57251">
        <ele>1129</ele>
        <time>2019-05-09T14:34:28Z</time>
      </trkpt>
      <trkpt lat="44.74524" lon="5.57125">
        <ele>1129</ele>
        <time>2019-05-09T14:35:28Z</time>
      </trkpt>
      <trkpt lat="44.74462" lon="5.57031">
        <ele>1125</ele>
        <time>2019-05-09T14:36:28Z</time>
      </trkpt>
      <trkpt lat="44.74401" lon="5.56959">
        <ele>1109</ele>
        <time>2019-05-09T14:37:28Z</time>
      </trkpt>
      <trkpt lat="44.74375" lon="5.56905">
        <ele>1096</ele>
        <time>2019-05-09T14:38:28Z</time>
      </trkpt>
      <trkpt lat="44.74375" lon="5.56829">
        <ele>1088</ele>
        <time>2019-05-09T14:39:28Z</time>
      </trkpt>
      <trkpt lat="44.74483" lon="5.56764">
        <ele>1109</ele>
        <time>2019-05-09T14:40:28Z</time>
      </trkpt>
      <trkpt lat="44.74465" lon="5.56674">
        <ele>1096</ele>
        <time>2019-05-09T14:41:28Z</time>
      </trkpt>
      <trkpt lat="44.74447" lon="5.56555">
        <ele>1089</ele>
        <time>2019-05-09T14:42:28Z</time>
      </trkpt>
      <trkpt lat="44.74518" lon="5.56237">
        <ele>1085</ele>
        <time>2019-05-09T14:43:28Z</time>
      </trkpt>
      <trkpt lat="44.74444" lon="5.56057">
        <ele>1066</ele>
        <time>2019-05-09T14:44:28Z</time>
      </trkpt>
      <trkpt lat="44.74424" lon="5.55931">
        <ele>1067</ele>
        <time>2019-05-09T14:45:28Z</time>
      </trkpt>
      <trkpt lat="44.74367" lon="5.55895">
        <ele>1056</ele>
        <time>2019-05-09T14:46:28Z</time>
      </trkpt>
      <trkpt lat="44.74316" lon="5.55808">
        <ele>1050</ele>
        <time>2019-05-09T14:47:28Z</time>
      </trkpt>
      <trkpt lat="44.7427" lon="5.55656">
        <ele>1048</ele>
        <time>2019-05-09T14:48:28Z</time>
      </trkpt>
      <trkpt lat="44.74247" lon="5.55537">
        <ele>1043</ele>
        <time>2019-05-09T14:49:28Z</time>
      </trkpt>
      <trkpt lat="44.74242" lon="5.55458">
        <ele>1039</ele>
        <time>2019-05-09T14:50:28Z</time>
      </trkpt>
      <trkpt lat="44.74296" lon="5.55194">
        <ele>1036</ele>
        <time>2019-05-09T14:51:28Z</time>
      </trkpt>
      <trkpt lat="44.7427" lon="5.5509">
        <ele>1024</ele>
        <time>2019-05-09T14:52:28Z</time>
      </trkpt>
      <trkpt lat="44.74298" lon="5.54996">
        <ele>1016</ele>
        <time>2019-05-09T14:53:28Z</time>
      </trkpt>
      <trkpt lat="44.74516" lon="5.54747">
        <ele>1007</ele>
        <time>2019-05-09T14:54:28Z</time>
      </trkpt>
      <trkpt lat="44.74675" lon="5.54484">
        <ele>992</ele>
        <time>2019-05-09T14:55:28Z</time>
      </trkpt>
      <trkpt lat="44.74657" lon="5.5444">
        <ele>989</ele>
        <time>2019-05-09T14:56:28Z</time>
      </trkpt>
      <trkpt lat="44.74601" lon="5.5439">
        <ele>988</ele>
        <time>2019-05-09T14:57:28Z</time>
      </trkpt>
      <trkpt lat="44.74524" lon="5.54382">
        <ele>985</ele>
        <time>2019-05-09T14:58:28Z</time>
      </trkpt>
      <trkpt lat="44.74465" lon="5.54422">
        <ele>969</ele>
        <time>2019-05-09T14:59:28Z</time>
      </trkpt>
      <trkpt lat="44.74408" lon="5.54429">
        <ele>968</ele>
        <time>2019-05-09T15:00:28Z</time>
      </trkpt>
      <trkpt lat="44.74365" lon="5.54415">
        <ele>971</ele>
        <time>2019-05-09T15:01:28Z</time>
      </trkpt>
      <trkpt lat="44.74216" lon="5.54426">
        <ele>965</ele>
        <time>2019-05-09T15:02:28Z</time>
      </trkpt>
      <trkpt lat="44.7418" lon="5.54451">
        <ele>953</ele>
        <time>2019-05-09T15:03:28Z</time>
      </trkpt>
      <trkpt lat="44.74121" lon="5.54429">
        <ele>965</ele>
        <time>2019-05-09T15:04:28Z</time>
      </trkpt>
      <trkpt lat="44.73962" lon="5.54498">
        <ele>959</ele>
        <time>2019-05-09T15:05:28Z</time>
      </trkpt>
      <trkpt lat="44.74057" lon="5.54491">
        <ele>941</ele>
        <time>2019-05-09T15:06:28Z</time>
      </trkpt>
      <trkpt lat="44.74132" lon="5.54478">
        <ele>941</ele>
        <time>2019-05-09T15:07:28Z</time>
      </trkpt>
      <trkpt lat="44.7421" lon="5.54522">
        <ele>926</ele>
        <time>2019-05-09T15:08:28Z</time>
      </trkpt>
      <trkpt lat="44.74316" lon="5.54513">
        <ele>934</ele>
        <time>2019-05-09T15:09:28Z</time>
      </trkpt>
      <trkpt lat="44.74327" lon="5.54671">
        <ele>921</ele>
        <time>2019-05-09T15:10:28Z</time>
      </trkpt>
      <trkpt lat="44.74303" lon="5.54726">
        <ele>923</ele>
        <time>2019-05-09T15:11:28Z</time>
      </trkpt>
      <trkpt lat="44.74208" lon="5.54814">
        <ele>905</ele>
        <time>2019-05-09T15:12:28Z</time>
      </trkpt>
      <trkpt lat="44.74135" lon="5.54914">
        <ele>901</ele>
        <time>2019-05-09T15:13:28Z</time>
      </trkpt>
      <trkpt lat="44.74079" lon="5.55023">
        <ele>902</ele>
        <time>2019-05-09T15:14:28Z</time>
      </trkpt>
      <trkpt lat="44.73939" lon="5.55148">
        <ele>896</ele>
        <time>2019-05-09T15:15:28Z</time>
      </trkpt>
      <trkpt lat="44.73854" lon="5.55193">
        <ele>886</ele>
        <time>2019-05-09T15:16:28Z</time>
      </trkpt>
      <trkpt lat="44.73779" lon="5.55217">
        <ele>872</ele>
        <time>2019-05-09T15:17:28Z</time>
      </trkpt>
      <trkpt lat="44.73762" lon="5.55284">
        <ele>876</ele>
        <time>2019-05-09T15:18:28Z</time>
      </trkpt>
      <trkpt lat="44.73779" lon="5.55384">
        <ele>879</ele>
        <time>2019-05-09T15:19:28Z</time>
      </trkpt>
      <trkpt lat="44.73809" lon="5.55469">
        <ele>874</ele>
        <time>2019-05-09T15:20:28Z</time>
      </trkpt>
      <trkpt lat="44.73762" lon="5.55521">
        <ele>866</ele>
        <time>2019-05-09T15:21:28Z</time>
      </trkpt>
      <trkpt lat="44.73712" lon="5.55472">
        <ele>866</ele>
        <time>2019-05-09T15:22:28Z</time>
      </trkpt>
      <trkpt lat="44.73678" lon="5.55393">
        <ele>860</ele>
        <time>2019-05-09T15:23:28Z</time>
      </trkpt>
      <trkpt lat="44.73643" lon="5.55336">
        <ele>853</ele>
        <time>2019-05-09T15:24:28Z</time>
      </trkpt>
      <trkpt lat="44.73635" lon="5.55199">
        <ele>842</ele>
        <time>2019-05-09T15:25:28Z</time>
      </trkpt>
      <trkpt lat="44.73721" lon="5.55175">
        <ele>849</ele>
        <time>2019-05-09T15:26:28Z</time>
      </trkpt>
      <trkpt lat="44.73822" lon="5.5506">
        <ele>839</ele>
        <time>2019-05-09T15:27:28Z</time>
      </trkpt>
      <trkpt lat="44.73874" lon="5.54926">
        <ele>826</ele>
        <time>2019-05-09T15:28:28Z</time>
      </trkpt>
      <trkpt lat="44.7393" lon="5.54847">
        <ele>838</ele>
        <time>2019-05-09T15:29:28Z</time>
      </trkpt>
      <trkpt lat="44.73857" lon="5.54814">
        <ele>838</ele>
        <time>2019-05-09T15:30:28Z</time>
      </trkpt>
      <trkpt lat="44.73762" lon="5.54844">
        <ele>825</ele>
        <time>2019-05-09T15:31:28Z</time>
      </trkpt>
      <trkpt lat="44.73695" lon="5.54841">
        <ele>824</ele>
        <time>2019-05-09T15:32:28Z</time>
      </trkpt>
      <trkpt lat="44.7363" lon="5.54853">
        <ele>812</ele>
        <time>2019-05-09T15:33:28Z</time>
      </trkpt>
      <trkpt lat="44.73531" lon="5.54792">
        <ele>812</ele>
        <time>2019-05-09T15:34:28Z</time>
      </trkpt>
      <trkpt lat="44.73428" lon="5.5475">
        <ele>808</ele>
        <time>2019-05-09T15:35:28Z</time>
      </trkpt>
      <trkpt lat="44.73346" lon="5.54753">
        <ele>804</ele>
        <time>2019-05-09T15:36:28Z</time>
      </trkpt>
      <trkpt lat="44.73216" lon="5.54865">
        <ele>777</ele>
        <time>2019-05-09T15:37:28Z</time>
      </trkpt>
      <trkpt lat="44.73104" lon="5.54771">
        <ele>785</ele>
        <time>2019-05-09T15:38:28Z</time>
      </trkpt>
      <trkpt lat="44.73018" lon="5.5478">
        <ele>780</ele>
        <time>2019-05-09T15:39:28Z</time>
      </trkpt>
      <trkpt lat="44.72938" lon="5.54814">
        <ele>764</ele>
        <time>2019-05-09T15:40:28Z</time>
      </trkpt>
      <trkpt lat="44.72828" lon="5.54789">
        <ele>760</ele>
        <time>2019-05-09T15:41:28Z</time>
      </trkpt>
      <trkpt lat="44.72766" lon="5.5475">
        <ele>762</ele>
        <time>2019-05-09T15:42:28Z</time>
      </trkpt>
      <trkpt lat="44.72697" lon="5.54717">
        <ele>761</ele>
        <time>2019-05-09T15:43:28Z</time>
      </trkpt>
      <trkpt lat="44.72634" lon="5.54714">
        <ele>750</ele>
        <time>2019-05-09T15:44:28Z</time>
      </trkpt>
      <trkpt lat="44.72548" lon="5.54683">
        <ele>744</ele>
        <time>2019-05-09T15:45:28Z</time>
      </trkpt>
      <trkpt lat="44.7247" lon="5.54595">
        <ele>737</ele>
        <time>2019-05-09T15:46:28Z</time>
      </trkpt>
      <trkpt lat="44.72455" lon="5.54389">
        <ele>753</ele>
        <time>2019-05-09T15:47:28Z</time>
      </trkpt>
      <trkpt lat="44.72425" lon="5.54292">
        <ele>752</ele>
        <time>2019-05-09T15:48:28Z</time>
      </trkpt>
      <trkpt lat="44.72358" lon="5.54176">
        <ele>736</ele>
        <time>2019-05-09T15:49:28Z</time>
      </trkpt>
      <trkpt lat="44.72302" lon="5.54091">
        <ele>726</ele>
        <time>2019-05-09T15:50:28Z</time>
      </trkpt>
      <trkpt lat="44.7235" lon="5.54258">
        <ele>715</ele>
        <time>2019-05-09T15:51:28Z</time>
      </trkpt>
      <trkpt lat="44.72401" lon="5.54459">
        <ele>717</ele>
        <time>2019-05-09T15:52:28Z</time>
      </trkpt>
      <trkpt lat="44.72354" lon="5.54368">
        <ele>702</ele>
        <time>2019-05-09T15:53:28Z</time>
      </trkpt>
      <trkpt lat="44.7227" lon="5.54192">
        <ele>694</ele>
        <time>2019-05-09T15:54:28Z</time>
      </trkpt>
      <trkpt lat="44.72197" lon="5.54082">
        <ele>690</ele>
        <time>2019-05-09T15:55:28Z</time>
      </trkpt>
      <trkpt lat="44.72138" lon="5.5397">
        <ele>692</ele>
        <time>2019-05-09T15:56:28Z</time>
      </trkpt>
      <trkpt lat="44.72128" lon="5.53861">
        <ele>692</ele>
        <time>2019-05-09T15:57:28Z</time>
      </trkpt>
      <trkpt lat="44.72134" lon="5.53758">
        <ele>694</ele>
        <time>2019-05-09T15:58:28Z</time>
      </trkpt>
      <trkpt lat="44.72104" lon="5.53682">
        <ele>690</ele>
        <time>2019-05-09T15:59:28Z</time>
      </trkpt>
      <trkpt lat="44.72061" lon="5.53621">
        <ele>691</ele>
        <time>2019-05-09T16:00:28Z</time>
      </trkpt>
      <trkpt lat="44.72003" lon="5.53603">
        <ele>675</ele>
        <time>2019-05-09T16:01:28Z</time>
      </trkpt>
      <trkpt lat="44.71955" lon="5.53515">
        <ele>684</ele>
        <time>2019-05-09T16:02:28Z</time>
      </trkpt>
      <trkpt lat="44.71901" lon="5.53479">
        <ele>676</ele>
        <time>2019-05-09T16:03:28Z</time>
      </trkpt>
      <trkpt lat="44.71793" lon="5.53445">
        <ele>666</ele>
        <time>2019-05-09T16:04:28Z</time>
      </trkpt>
      <trkpt lat="44.71707" lon="5.53284">
        <ele>672</ele>
        <time>2019-05-09T16:05:28Z</time>
      </trkpt>
      <trkpt lat="44.71658" lon="5.53221">
        <ele>664</ele>
        <time>2019-05-09T16:06:28Z</time>
      </trkpt>
      <trkpt lat="44.71602" lon="5.5319">
        <ele>655</ele>
        <time>2019-05-09T16:07:28Z</time>
      </trkpt>
      <trkpt lat="44.71513" lon="5.52835">
        <ele>642</ele>
        <time>2019-05-09T16:08:28Z</time>
      </trkpt>
      <trkpt lat="44.71358" lon="5.52814">
        <ele>657</ele>
        <time>2019-05-09T16:09:28Z</time>
      </trkpt>
      <trkpt lat="44.71246" lon="5.52838">
        <ele>655</ele>
        <time>2019-05-09T16:10:28Z</time>
      </trkpt>
      <trkpt lat="44.71131" lon="5.5285">
        <ele>656</ele>
        <time>2019-05-09T16:11:28Z</time>
      </trkpt>
      <trkpt lat="44.7103" lon="5.52826">
        <ele>651</ele>
        <time>2019-05-09T16:12:28Z</time>
      </trkpt>
      <trkpt lat="44.70961" lon="5.52817">
        <ele>642</ele>
        <time>2019-05-09T16:13:28Z</time>
      </trkpt>
      <trkpt lat="44.7089" lon="5.52741">
        <ele>655</ele>
        <time>2019-05-09T16:14:28Z</time>
      </trkpt>
      <trkpt lat="44.70806" lon="5.52756">
        <ele>640</ele>
        <time>2019-05-09T16:15:28Z</time>
      </trkpt>
      <trkpt lat="44.70659" lon="5.52717">
        <ele>648</ele>
        <time>2019-05-09T16:16:28Z</time>
      </trkpt>
      <trkpt lat="44.70566" lon="5.52756">
        <ele>635</ele>
        <time>2019-05-09T16:17:28Z</time>
      </trkpt>
      <trkpt lat="44.70517" lon="5.52774">
        <ele>630</ele>
        <time>2019-05-09T16:18:28Z</time>
      </trkpt>
      <trkpt lat="44.70383" lon="5.52735">
        <ele>630</ele>
        <time>2019-05-09T16:19:28Z</time>
      </trkpt>
      <trkpt lat="44.70314" lon="5.52668">
        <ele>636</ele>
        <time>2019-05-09T16:20:28Z</time>
      </trkpt>
      <trkpt lat="44.70223" lon="5.52647">
        <ele>628</ele>
        <time>2019-05-09T16:21:28Z</time>
      </trkpt>
      <trkpt lat="44.70079" lon="5.52544">
        <ele>631</ele>
        <time>2019-05-09T16:22:28Z</time>
      </trkpt>
      <trkpt lat="44.69971" lon="5.52444">
        <ele>628</ele>
        <time>2019-05-09T16:23:28Z</time>
      </trkpt>
      <trkpt lat="44.69917" lon="5.52401">
        <ele>628</ele>
        <time>2019-05-09T16:24:28Z</time>
      </trkpt>
      <trkpt lat="44.69855" lon="5.52334">
        <ele>627</ele>
        <time>2019-05-09T16:25:28Z</time>
      </trkpt>
      <trkpt lat="44.69732" lon="5.52295">
        <ele>624</ele>
        <time>2019-05-09T16:26:28Z</time>
      </trkpt>
      <trkpt lat="44.69656" lon="5.52307">
        <ele>616</ele>
        <time>2019-05-09T16:27:28Z</time>
      </trkpt>
      <trkpt lat="44.69596" lon="5.52283">
        <ele>617</ele>
        <time>2019-05-09T16:28:28Z</time>
      </trkpt>
      <trkpt lat="44.6954" lon="5.52292">
        <ele>614</ele>
        <time>2019-05-09T16:29:28Z</time>
      </trkpt>
      <trkpt lat="44.6943" lon="5.52195">
        <ele>618</ele>
        <time>2019-05-09T16:30:28Z</time>
      </trkpt>
      <trkpt lat="44.69348" lon="5.52195">
        <ele>611</ele>
        <time>2019-05-09T16:31:28Z</time>
      </trkpt>
      <trkpt lat="44.69274" lon="5.5208">
        <ele>615</ele>
        <time>2019-05-09T16:32:28Z</time>
      </trkpt>
      <trkpt lat="44.69138" lon="5.51976">
        <ele>614</ele>
        <time>2019-05-09T16:33:28Z</time>
      </trkpt>
      <trkpt lat="44.69048" lon="5.51934">
        <ele>613</ele>
        <time>2019-05-09T16:34:28Z</time>
      </trkpt>
      <trkpt lat="44.68964" lon="5.51913">
        <ele>606</ele>
        <time>2019-05-09T16:35:28Z</time>
      </trkpt>
      <trkpt lat="44.68884" lon="5.51843">
        <ele>611</ele>
        <time>2019-05-09T16:36:28Z</time>
      </trkpt>
      <trkpt lat="44.68821" lon="5.51758">
        <ele>604</ele>
        <time>2019-05-09T16:37:28Z</time>
      </trkpt>
      <trkpt lat="44.68787" lon="5.51549">
        <ele>601</ele>
        <time>2019-05-09T16:38:28Z</time>
      </trkpt>
      <trkpt lat="44.68867" lon="5.51424">
        <ele>608</ele>
        <time>2019-05-09T16:39:28Z</time>
      </trkpt>
      <trkpt lat="44.68901" lon="5.51254">
        <ele>601</ele>
        <time>2019-05-09T16:40:28Z</time>
      </trkpt>
      <trkpt lat="44.68977" lon="5.51154">
        <ele>602</ele>
        <time>2019-05-09T16:41:28Z</time>
      </trkpt>
      <trkpt lat="44.68998" lon="5.51081">
        <ele>593</ele>
        <time>2019-05-09T16:42:28Z</time>
      </trkpt>
      <trkpt lat="44.69069" lon="5.50993">
        <ele>601</ele>
        <time>2019-05-09T16:43:28Z</time>
      </trkpt>
      <trkpt lat="44.69069" lon="5.50908">
        <ele>592</ele>
        <time>2019-05-09T16:44:28Z</time>
      </trkpt>
      <trkpt lat="44.6911" lon="5.50726">
        <ele>589</ele>
        <time>2019-05-09T16:45:28Z</time>
      </trkpt>
      <trkpt lat="44.69164" lon="5.50596">
        <ele>595</ele>
        <time>2019-05-09T16:46:28Z</time>
      </trkpt>
      <trkpt lat="44.6919" lon="5.50462">
        <ele>596</ele>
        <time>2019-05-09T16:47:28Z</time>
      </trkpt>
      <trkpt lat="44.69214" lon="5.5038">
        <ele>600</ele>
        <time>2019-05-09T16:48:28Z</time>
      </trkpt>
      <trkpt lat="44.69197" lon="5.50265">
        <ele>593</ele>
        <time>2019-05-09T16:49:28Z</time>
      </trkpt>
      <trkpt lat="44.69227" lon="5.50137">
        <ele>602</ele>
        <time>2019-05-09T16:50:28Z</time>
      </trkpt>
      <trkpt lat="44.6921" lon="5.49949">
        <ele>590</ele>
        <time>2019-05-09T16:51:28Z</time>
      </trkpt>
      <trkpt lat="44.69352" lon="5.49643">
        <ele>588</ele>
        <time>2019-05-09T16:52:28Z</time>
      </trkpt>
      <trkpt lat="44.6941" lon="5.49042">
        <ele>569</ele>
        <time>2019-05-09T16:53:28Z</time>
      </trkpt>
      <trkpt lat="44.69434" lon="5.48975">
        <ele>569</ele>
        <time>2019-05-09T16:54:28Z</time>
      </trkpt>
      <trkpt lat="44.69501" lon="5.48872">
        <ele>576</ele>
        <time>2019-05-09T16:55:28Z</time>
      </trkpt>
      <trkpt lat="44.69522" lon="5.48717">
        <ele>582</ele>
        <time>2019-05-09T16:56:28Z</time>
      </trkpt>
      <trkpt lat="44.69514" lon="5.48499">
        <ele>588</ele>
        <time>2019-05-09T16:57:28Z</time>
      </trkpt>
      <trkpt lat="44.69425" lon="5.48508">
        <ele>575</ele>
        <time>2019-05-09T16:58:28Z</time>
      </trkpt>
      <trkpt lat="44.69438" lon="5.48754">
        <ele>566</ele>
        <time>2019-05-09T16:59:28Z</time>
      </trkpt>
      <trkpt lat="44.69443" lon="5.48948">
        <ele>570</ele>
        <time>2019-05-09T17:00:28Z</time>
      </trkpt>
      <trkpt lat="44.69354" lon="5.49072">
        <ele>567</ele>
        <time>2019-05-09T17:01:28Z</time>
      </trkpt>
      <trkpt lat="44.69296" lon="5.49063">
        <ele>568</ele>
        <time>2019-05-09T17:02:28Z</time>
      </trkpt>
      <trkpt lat="44.69233" lon="5.49081">
        <ele>571</ele>
        <time>2019-05-09T17:03:28Z</time>
      </trkpt>
      <trkpt lat="44.69186" lon="5.49191">
        <ele>565</ele>
        <time>2019-05-09T17:04:28Z</time>
      </trkpt>
      <trkpt lat="44.69162" lon="5.49409">
        <ele>569</ele>
        <time>2019-05-09T17:05:28Z</time>
      </trkpt>
      <trkpt lat="44.69125" lon="5.49531">
        <ele>570</ele>
        <time>2019-05-09T17:06:28Z</time>
      </trkpt>
      <trkpt lat="44.69048" lon="5.49734">
        <ele>574</ele>
        <time>2019-05-09T17:07:28Z</time>
      </trkpt>
      <trkpt lat="44.68968" lon="5.49907">
        <ele>579</ele>
        <time>2019-05-09T17:08:28Z</time>
      </trkpt>
      <trkpt lat="44.68851" lon="5.5011">
        <ele>584</ele>
        <time>2019-05-09T17:09:28Z</time>
      </trkpt>
      <trkpt lat="44.68757" lon="5.50283">
        <ele>589</ele>
        <time>2019-05-09T17:10:28Z</time>
      </trkpt>
      <trkpt lat="44.68713" lon="5.50389">
        <ele>604</ele>
        <time>2019-05-09T17:11:28Z</time>
      </trkpt>
      <trkpt lat="44.68793" lon="5.50605">
        <ele>600</ele>
        <time>2019-05-09T17:12:28Z</time>
      </trkpt>
      <trkpt lat="44.68832" lon="5.50996">
        <ele>604</ele>
        <time>2019-05-09T17:13:28Z</time>
      </trkpt>
      <trkpt lat="44.68735" lon="5.51242">
        <ele>616</ele>
        <time>2019-05-09T17:14:28Z</time>
      </trkpt>
      <trkpt lat="44.687" lon="5.51385">
        <ele>609</ele>
        <time>2019-05-09T17:15:28Z</time>
      </trkpt>
      <trkpt lat="44.68629" lon="5.51439">
        <ele>624</ele>
        <time>2019-05-09T17:16:28Z</time>
      </trkpt>
      <trkpt lat="44.68599" lon="5.51542">
        <ele>609</ele>
        <time>2019-05-09T17:17:28Z</time>
      </trkpt>
      <trkpt lat="44.68517" lon="5.51649">
        <ele>603</ele>
        <time>2019-05-09T17:18:28Z</time>
      </trkpt>
      <trkpt lat="44.68422" lon="5.51767">
        <ele>597</ele>
        <time>2019-05-09T17:19:28Z</time>
      </trkpt>
      <trkpt lat="44.68306" lon="5.51931">
        <ele>606</ele>
        <time>2019-05-09T17:20:28Z</time>
      </trkpt>
      <trkpt lat="44.68094" lon="5.52119">
        <ele>619</ele>
        <time>2019-05-09T17:21:28Z</time>
      </trkpt>
      <trkpt lat="44.68116" lon="5.52259">
        <ele>621</ele>
        <time>2019-05-09T17:22:28Z</time>
      </trkpt>
      <trkpt lat="44.68045" lon="5.52435">
        <ele>623</ele>
        <time>2019-05-09T17:23:28Z</time>
      </trkpt>
      <trkpt lat="44.68062" lon="5.52571">
        <ele>632</ele>
        <time>2019-05-09T17:24:28Z</time>
      </trkpt>
      <trkpt lat="44.67971" lon="5.52732">
        <ele>632</ele>
        <time>2019-05-09T17:25:28Z</time>
      </trkpt>
      <trkpt lat="44.67865" lon="5.52941">
        <ele>635</ele>
        <time>2019-05-09T17:26:28Z</time>
      </trkpt>
      <trkpt lat="44.67758" lon="5.53087">
        <ele>636</ele>
        <time>2019-05-09T17:27:28Z</time>
      </trkpt>
      <trkpt lat="44.67619" lon="5.5319">
        <ele>647</ele>
        <time>2019-05-09T17:28:28Z</time>
      </trkpt>
      <trkpt lat="44.67589" lon="5.53287">
        <ele>648</ele>
        <time>2019-05-09T17:29:28Z</time>
      </trkpt>
      <trkpt lat="44.67542" lon="5.53412">
        <ele>648</ele>
        <time>2019-05-09T17:30:28Z</time>
      </trkpt>
      <trkpt lat="44.67512" lon="5.53539">
        <ele>658</ele>
        <time>2019-05-09T17:31:28Z</time>
      </trkpt>
      <trkpt lat="44.6744" lon="5.53597">
        <ele>668</ele>
        <time>2019-05-09T17:32:28Z</time>
      </trkpt>
      <trkpt lat="44.67382" lon="5.53594">
        <ele>659</ele>
        <time>2019-05-09T17:33:28Z</time>
      </trkpt>
      <trkpt lat="44.67276" lon="5.53533">
        <ele>648</ele>
        <time>2019-05-09T17:34:28Z</time>
      </trkpt>
      <trkpt lat="44.67248" lon="5.53536">
        <ele>648</ele>
        <time>2019-05-09T17:35:28Z</time>
      </trkpt>
      <trkpt lat="44.67244" lon="5.53624">
        <ele>656</ele>
        <time>2019-05-09T17:36:28Z</time>
      </trkpt>
      <trkpt lat="44.6716" lon="5.53824">
        <ele>654</ele>
        <time>2019-05-09T17:37:28Z</time>
      </trkpt>
      <trkpt lat="44.66838" lon="5.5424">
        <ele>665</ele>
        <time>2019-05-09T17:38:28Z</time>
      </trkpt>
      <trkpt lat="44.66799" lon="5.54337">
        <ele>674</ele>
        <time>2019-05-09T17:39:28Z</time>
      </trkpt>
      <trkpt lat="44.66834" lon="5.54425">
        <ele>670</ele>
        <time>2019-05-09T17:40:28Z</time>
      </trkpt>
      <trkpt lat="44.66812" lon="5.5451">
        <ele>692</ele>
        <time>2019-05-09T17:41:28Z</time>
      </trkpt>
      <trkpt lat="44.66752" lon="5.54562">
        <ele>687</ele>
        <time>2019-05-09T17:42:28Z</time>
      </trkpt>
      <trkpt lat="44.66689" lon="5.54629">
        <ele>702</ele>
        <time>2019-05-09T17:43:28Z</time>
      </trkpt>
      <trkpt lat="44.6661" lon="5.54665">
        <ele>687</ele>
        <time>2019-05-09T17:44:28Z</time>
      </trkpt>
      <trkpt lat="44.66616" lon="5.54765">
        <ele>693</ele>
        <time>2019-05-09T17:45:28Z</time>
      </trkpt>
      <trkpt lat="44.66668" lon="5.54917">
        <ele>681</ele>
        <time>2019-05-09T17:46:28Z</time>
      </trkpt>
      <trkpt lat="44.66774" lon="5.55151">
        <ele>699</ele>
        <time>2019-05-09T17:47:28Z</time>
      </trkpt>
      <trkpt lat="44.66873" lon="5.5536">
        <ele>706</ele>
        <time>2019-05-09T17:48:28Z</time>
      </trkpt>
      <trkpt lat="44.66985" lon="5.555">
        <ele>703</ele>
        <time>2019-05-09T17:49:28Z</time>
      </trkpt>
      <trkpt lat="44.67067" lon="5.55615">
        <ele>711</ele>
        <time>2019-05-09T17:50:28Z</time>
      </trkpt>
      <trkpt lat="44.67173" lon="5.55648">
        <ele>718</ele>
        <time>2019-05-09T17:51:28Z</time>
      </trkpt>
      <trkpt lat="44.67203" lon="5.55791">
        <ele>708</ele>
        <time>2019-05-09T17:52:28Z</time>
      </trkpt>
      <trkpt lat="44.67291" lon="5.55845">
        <ele>728</ele>
        <time>2019-05-09T17:53:28Z</time>
      </trkpt>
      <trkpt lat="44.67335" lon="5.55937">
        <ele>710</ele>
        <time>2019-05-09T17:54:28Z</time>
      </trkpt>
      <trkpt lat="44.67384" lon="5.55991">
        <ele>725</ele>
        <time>2019-05-09T17:55:28Z</time>
      </trkpt>
      <trkpt lat="44.67395" lon="5.56131">
        <ele>730</ele>
        <time>2019-05-09T17:56:28Z</time>
      </trkpt>
      <trkpt lat="44.6743" lon="5.56185">
        <ele>726</ele>
        <time>2019-05-09T17:57:28Z</time>
      </trkpt>
      <trkpt lat="44.6754" lon="5.56194">
        <ele>740</ele>
        <time>2019-05-09T17:58:28Z</time>
      </trkpt>
      <trkpt lat="44.67632" lon="5.56188">
        <ele>742</ele>
        <time>2019-05-09T17:59:28Z</time>
      </trkpt>
      <trkpt lat="44.67708" lon="5.5624">
        <ele>736</ele>
        <time>2019-05-09T18:00:28Z</time>
      </trkpt>
      <trkpt lat="44.67678" lon="5.56328">
        <ele>736</ele>
        <time>2019-05-09T18:01:28Z</time>
      </trkpt>
      <trkpt lat="44.67753" lon="5.56434">
        <ele>736</ele>
        <time>2019-05-09T18:02:28Z</time>
      </trkpt>
      <trkpt lat="44.6784" lon="5.56477">
        <ele>764</ele>
        <time>2019-05-09T18:03:28Z</time>
      </trkpt>
      <trkpt lat="44.67861" lon="5.56571">
        <ele>751</ele>
        <time>2019-05-09T18:04:28Z</time>
      </trkpt>
      <trkpt lat="44.67883" lon="5.56631">
        <ele>754</ele>
        <time>2019-05-09T18:05:28Z</time>
      </trkpt>
      <trkpt lat="44.67883" lon="5.56689">
        <ele>746</ele>
        <time>2019-05-09T18:06:28Z</time>
      </trkpt>
      <trkpt lat="44.67943" lon="5.56735">
        <ele>741</ele>
        <time>2019-05-09T18:07:28Z</time>
      </trkpt>
      <trkpt lat="44.68101" lon="5.57032">
        <ele>756</ele>
        <time>2019-05-09T18:08:28Z</time>
      </trkpt>
      <trkpt lat="44.68198" lon="5.57056">
        <ele>778</ele>
        <time>2019-05-09T18:09:28Z</time>
      </trkpt>
      <trkpt lat="44.6823" lon="5.57166">
        <ele>766</ele>
        <time>2019-05-09T18:10:28Z</time>
      </trkpt>
      <trkpt lat="44.68299" lon="5.57296">
        <ele>775</ele>
        <time>2019-05-09T18:11:28Z</time>
      </trkpt>
      <trkpt lat="44.68323" lon="5.57357">
        <ele>770</ele>
        <time>2019-05-09T18:12:28Z</time>
      </trkpt>
      <trkpt lat="44.68565" lon="5.57524">
        <ele>818</ele>
        <time>2019-05-09T18:13:28Z</time>
      </trkpt>
      <trkpt lat="44.68675" lon="5.57514">
        <ele>811</ele>
        <time>2019-05-09T18:14:28Z</time>
      </trkpt>
      <trkpt lat="44.68748" lon="5.5756">
        <ele>819</ele>
        <time>2019-05-09T18:15:28Z</time>
      </trkpt>
      <trkpt lat="44.68813" lon="5.57727">
        <ele>861</ele>
        <time>2019-05-09T18:16:28Z</time>
      </trkpt>
      <trkpt lat="44.68867" lon="5.57812">
        <ele>839</ele>
        <time>2019-05-09T18:17:28Z</time>
      </trkpt>
      <trkpt lat="44.68871" lon="5.5793">
        <ele>790</ele>
        <time>2019-05-09T18:18:28Z</time>
      </trkpt>
      <trkpt lat="44.68992" lon="5.57991">
        <ele>817</ele>
        <time>2019-05-09T18:19:28Z</time>
      </trkpt>
      <trkpt lat="44.69005" lon="5.58073">
        <ele>791</ele>
        <time>2019-05-09T18:20:28Z</time>
      </trkpt>
      <trkpt lat="44.68921" lon="5.57985">
        <ele>785</ele>
        <time>2019-05-09T18:21:28Z</time>
      </trkpt>
      <trkpt lat="44.68843" lon="5.57982">
        <ele>792</ele>
        <time>2019-05-09T18:22:28Z</time>
      </trkpt>
      <trkpt lat="44.68793" lon="5.58058">
        <ele>813</ele>
        <time>2019-05-09T18:23:28Z</time>
      </trkpt>
      <trkpt lat="44.68765" lon="5.58161">
        <ele>802</ele>
        <time>2019-05-09T18:24:28Z</time>
      </trkpt>
      <trkpt lat="44.68761" lon="5.58279">
        <ele>793</ele>
        <time>2019-05-09T18:25:28Z</time>
      </trkpt>
      <trkpt lat="44.68798" lon="5.5834">
        <ele>800</ele>
        <time>2019-05-09T18:26:28Z</time>
      </trkpt>
      <trkpt lat="44.6883" lon="5.58425">
        <ele>812</ele>
        <time>2019-05-09T18:27:28Z</time>
      </trkpt>
      <trkpt lat="44.68735" lon="5.58558">
        <ele>823</ele>
        <time>2019-05-09T18:28:28Z</time>
      </trkpt>
      <trkpt lat="44.68705" lon="5.58616">
        <ele>837</ele>
        <time>2019-05-09T18:29:28Z</time>
      </trkpt>
      <trkpt lat="44.6864" lon="5.58701">
        <ele>861</ele>
        <time>2019-05-09T18:30:28Z</time>
      </trkpt>
      <trkpt lat="44.68571" lon="5.5878">
        <ele>896</ele>
        <time>2019-05-09T18:31:28Z</time>
      </trkpt>
      <trkpt lat="44.68513" lon="5.58828">
        <ele>917</ele>
        <time>2019-05-09T18:32:28Z</time>
      </trkpt>
      <trkpt lat="44.68485" lon="5.58962">
        <ele>879</ele>
        <time>2019-05-09T18:33:28Z</time>
      </trkpt>
      <trkpt lat="44.6845" lon="5.59199">
        <ele>878</ele>
        <time>2019-05-09T18:34:28Z</time>
      </trkpt>
      <trkpt lat="44.68426" lon="5.59296">
        <ele>866</ele>
        <time>2019-05-09T18:35:28Z</time>
      </trkpt>
      <trkpt lat="44.68398" lon="5.59366">
        <ele>867</ele>
        <time>2019-05-09T18:36:28Z</time>
      </trkpt>
      <trkpt lat="44.68411" lon="5.59444">
        <ele>860</ele>
        <time>2019-05-09T18:37:28Z</time>
      </trkpt>
      <trkpt lat="44.68496" lon="5.59499">
        <ele>852</ele>
        <time>2019-05-09T18:38:28Z</time>
      </trkpt>
      <trkpt lat="44.68599" lon="5.59602">
        <ele>856</ele>
        <time>2019-05-09T18:39:28Z</time>
      </trkpt>
      <trkpt lat="44.68759" lon="5.59687">
        <ele>864</ele>
        <time>2019-05-09T18:40:28Z</time>
      </trkpt>
      <trkpt lat="44.68782" lon="5.59784">
        <ele>868</ele>
        <time>2019-05-09T18:41:28Z</time>
      </trkpt>
      <trkpt lat="44.68862" lon="5.59775">
        <ele>875</ele>
        <time>2019-05-09T18:42:28Z</time>
      </trkpt>
      <trkpt lat="44.68929" lon="5.59705">
        <ele>875</ele>
        <time>2019-05-09T18:43:28Z</time>
      </trkpt>
      <trkpt lat="44.69067" lon="5.59745">
        <ele>886</ele>
        <time>2019-05-09T18:44:28Z</time>
      </trkpt>
      <trkpt lat="44.69106" lon="5.5986">
        <ele>900</ele>
        <time>2019-05-09T18:45:28Z</time>
      </trkpt>
      <trkpt lat="44.69121" lon="5.59933">
        <ele>906</ele>
        <time>2019-05-09T18:46:28Z</time>
      </trkpt>
      <trkpt lat="44.69238" lon="5.59957">
        <ele>909</ele>
        <time>2019-05-09T18:47:28Z</time>
      </trkpt>
      <trkpt lat="44.69253" lon="5.601">
        <ele>898</ele>
        <time>2019-05-09T18:48:28Z</time>
      </trkpt>
      <trkpt lat="44.69324" lon="5.60224">
        <ele>914</ele>
        <time>2019-05-09T18:49:28Z</time>
      </trkpt>
      <trkpt lat="44.69322" lon="5.60288">
        <ele>912</ele>
        <time>2019-05-09T18:50:28Z</time>
      </trkpt>
      <trkpt lat="44.69343" lon="5.60385">
        <ele>915</ele>
        <time>2019-05-09T18:51:28Z</time>
      </trkpt>
      <trkpt lat="44.69356" lon="5.60582">
        <ele>911</ele>
        <time>2019-05-09T18:52:28Z</time>
      </trkpt>
      <trkpt lat="44.69425" lon="5.60707">
        <ele>922</ele>
        <time>2019-05-09T18:53:28Z</time>
      </trkpt>
      <trkpt lat="44.69436" lon="5.6091">
        <ele>939</ele>
        <time>2019-05-09T18:54:28Z</time>
      </trkpt>
      <trkpt lat="44.69425" lon="5.60992">
        <ele>933</ele>
        <time>2019-05-09T18:55:28Z</time>
      </trkpt>
      <trkpt lat="44.69468" lon="5.61153">
        <ele>934</ele>
        <time>2019-05-09T18:56:28Z</time>
      </trkpt>
      <trkpt lat="44.69522" lon="5.61265">
        <ele>933</ele>
        <time>2019-05-09T18:57:28Z</time>
      </trkpt>
      <trkpt lat="44.69624" lon="5.6132">
        <ele>947</ele>
        <time>2019-05-09T18:58:28Z</time>
      </trkpt>
      <trkpt lat="44.69723" lon="5.6162">
        <ele>954</ele>
        <time>2019-05-09T18:59:28Z</time>
      </trkpt>
      <trkpt lat="44.69967" lon="5.61669">
        <ele>977</ele>
        <time>2019-05-09T19:00:28Z</time>
      </trkpt>
      <trkpt lat="44.70029" lon="5.61705">
        <ele>986</ele>
        <time>2019-05-09T19:01:28Z</time>
      </trkpt>
      <trkpt lat="44.70103" lon="5.61684">
        <ele>1002</ele>
        <time>2019-05-09T19:02:28Z</time>
      </trkpt>
      <trkpt lat="44.70141" lon="5.61772">
        <ele>995</ele>
        <time>2019-05-09T19:03:28Z</time>
      </trkpt>
      <trkpt lat="44.70148" lon="5.61857">
        <ele>1003</ele>
        <time>2019-05-09T19:04:28Z</time>
      </trkpt>
      <trkpt lat="44.70116" lon="5.61878">
        <ele>1015</ele>
        <time>2019-05-09T19:05:28Z</time>
      </trkpt>
      <trkpt lat="44.70083" lon="5.61802">
        <ele>998</ele>
        <time>2019-05-09T19:06:28Z</time>
      </trkpt>
      <trkpt lat="44.69958" lon="5.61793">
        <ele>998</ele>
        <time>2019-05-09T19:07:28Z</time>
      </trkpt>
      <trkpt lat="44.69917" lon="5.61842">
        <ele>1016</ele>
        <time>2019-05-09T19:08:28Z</time>
      </trkpt>
      <trkpt lat="44.69777" lon="5.61927">
        <ele>1018</ele>
        <time>2019-05-09T19:09:28Z</time>
      </trkpt>
      <trkpt lat="44.6974" lon="5.62033">
        <ele>1038</ele>
        <time>2019-05-09T19:10:28Z</time>
      </trkpt>
      <trkpt lat="44.69648" lon="5.62124">
        <ele>1026</ele>
        <time>2019-05-09T19:11:28Z</time>
      </trkpt>
      <trkpt lat="44.69589" lon="5.62215">
        <ele>1031</ele>
        <time>2019-05-09T19:12:28Z</time>
      </trkpt>
      <trkpt lat="44.69548" lon="5.62358">
        <ele>1034</ele>
        <time>2019-05-09T19:13:28Z</time>
      </trkpt>
      <trkpt lat="44.69635" lon="5.62443">
        <ele>1067</ele>
        <time>2019-05-09T19:14:28Z</time>
      </trkpt>
      <trkpt lat="44.6965" lon="5.62628">
        <ele>1080</ele>
        <time>2019-05-09T19:15:28Z</time>
      </trkpt>
      <trkpt lat="44.69594" lon="5.6271">
        <ele>1061</ele>
        <time>2019-05-09T19:16:28Z</time>
      </trkpt>
      <trkpt lat="44.69546" lon="5.62934">
        <ele>1073</ele>
        <time>2019-05-09T19:17:28Z</time>
      </trkpt>
      <trkpt lat="44.6957" lon="5.63013">
        <ele>1081</ele>
        <time>2019-05-09T19:18:28Z</time>
      </trkpt>
      <trkpt lat="44.69594" lon="5.63065">
        <ele>1081</ele>
        <time>2019-05-09T19:19:28Z</time>
      </trkpt>
      <trkpt lat="44.69656" lon="5.63059">
        <ele>1104</ele>
        <time>2019-05-09T19:20:28Z</time>
      </trkpt>
      <trkpt lat="44.69648" lon="5.63186">
        <ele>1101</ele>
        <time>2019-05-09T19:21:28Z</time>
      </trkpt>
      <trkpt lat="44.69622" lon="5.63298">
        <ele>1097</ele>
        <time>2019-05-09T19:22:28Z</time>
      </trkpt>
      <trkpt lat="44.69648" lon="5.63417">
        <ele>1113</ele>
        <time>2019-05-09T19:23:28Z</time>
      </trkpt>
      <trkpt lat="44.69559" lon="5.63523">
        <ele>1105</ele>
        <time>2019-05-09T19:24:28Z</time>
      </trkpt>
      <trkpt lat="44.69641" lon="5.63781">
        <ele>1127</ele>
        <time>2019-05-09T19:25:28Z</time>
      </trkpt>
      <trkpt lat="44.69645" lon="5.63881">
        <ele>1132</ele>
        <time>2019-05-09T19:26:28Z</time>
      </trkpt>
      <trkpt lat="44.69641" lon="5.6403">
        <ele>1139</ele>
        <time>2019-05-09T19:27:28Z</time>
      </trkpt>
      <trkpt lat="44.69676" lon="5.64218">
        <ele>1148</ele>
        <time>2019-05-09T19:28:28Z</time>
      </trkpt>
      <trkpt lat="44.69656" lon="5.64403">
        <ele>1160</ele>
        <time>2019-05-09T19:29:28Z</time>
      </trkpt>
      <trkpt lat="44.69665" lon="5.64509">
        <ele>1165</ele>
        <time>2019-05-09T19:30:28Z</time>
      </trkpt>
      <trkpt lat="44.69684" lon="5.64388">
        <ele>1165</ele>
        <time>2019-05-09T19:31:28Z</time>
      </trkpt>
      <trkpt lat="44.69699" lon="5.64315">
        <ele>1163</ele>
        <time>2019-05-09T19:32:28Z</time>
      </trkpt>
      <trkpt lat="44.69745" lon="5.64254">
        <ele>1173</ele>
        <time>2019-05-09T19:33:28Z</time>
      </trkpt>
      <trkpt lat="44.69719" lon="5.64145">
        <ele>1167</ele>
        <time>2019-05-09T19:34:28Z</time>
      </trkpt>
      <trkpt lat="44.69723" lon="5.6396">
        <ele>1168</ele>
        <time>2019-05-09T19:35:28Z</time>
      </trkpt>
      <trkpt lat="44.69747" lon="5.63881">
        <ele>1176</ele>
        <time>2019-05-09T19:36:28Z</time>
      </trkpt>
      <trkpt lat="44.69755" lon="5.63805">
        <ele>1177</ele>
        <time>2019-05-09T19:37:28Z</time>
      </trkpt>
      <trkpt lat="44.69827" lon="5.63702">
        <ele>1197</ele>
        <time>2019-05-09T19:38:28Z</time>
      </trkpt>
      <trkpt lat="44.69829" lon="5.6359">
        <ele>1194</ele>
        <time>2019-05-09T19:39:28Z</time>
      </trkpt>
      <trkpt lat="44.69889" lon="5.63474">
        <ele>1208</ele>
        <time>2019-05-09T19:40:28Z</time>
      </trkpt>
      <trkpt lat="44.69889" lon="5.63332">
        <ele>1208</ele>
        <time>2019-05-09T19:41:28Z</time>
      </trkpt>
      <trkpt lat="44.69915" lon="5.63405">
        <ele>1219</ele>
        <time>2019-05-09T19:42:28Z</time>
      </trkpt>
      <trkpt lat="44.69932" lon="5.63496">
        <ele>1226</ele>
        <time>2019-05-09T19:43:28Z</time>
      </trkpt>
      <trkpt lat="44.69891" lon="5.6359">
        <ele>1223</ele>
        <time>2019-05-09T19:44:28Z</time>
      </trkpt>
      <trkpt lat="44.6988" lon="5.63669">
        <ele>1225</ele>
        <time>2019-05-09T19:45:28Z</time>
      </trkpt>
      <trkpt lat="44.69913" lon="5.63754">
        <ele>1236</ele>
        <time>2019-05-09T19:46:28Z</time>
      </trkpt>
      <trkpt lat="44.69945" lon="5.6386">
        <ele>1242</ele>
        <time>2019-05-09T19:47:28Z</time>
      </trkpt>
      <trkpt lat="44.6996" lon="5.63996">
        <ele>1247</ele>
        <time>2019-05-09T19:48:28Z</time>
      </trkpt>
      <trkpt lat="44.6998" lon="5.64148">
        <ele>1251</ele>
        <time>2019-05-09T19:49:28Z</time>
      </trkpt>
      <trkpt lat="44.70027" lon="5.64306">
        <ele>1260</ele>
        <time>2019-05-09T19:50:28Z</time>
      </trkpt>
      <trkpt lat="44.70034" lon="5.64409">
        <ele>1264</ele>
        <time>2019-05-09T19:51:28Z</time>
      </trkpt>
      <trkpt lat="44.7007" lon="5.64536">
        <ele>1274</ele>
        <time>2019-05-09T19:52:28Z</time>
      </trkpt>
      <trkpt lat="44.70053" lon="5.64618">
        <ele>1273</ele>
        <time>2019-05-09T19:53:28Z</time>
      </trkpt>
      <trkpt lat="44.70047" lon="5.64716">
        <ele>1276</ele>
        <time>2019-05-09T19:54:28Z</time>
      </trkpt>
      <trkpt lat="44.70062" lon="5.64776">
        <ele>1279</ele>
        <time>2019-05-09T19:55:28Z</time>
      </trkpt>
      <trkpt lat="44.70135" lon="5.6484">
        <ele>1293</ele>
        <time>2019-05-09T19:56:28Z</time>
      </trkpt>
      <trkpt lat="44.70133" lon="5.64901">
        <ele>1297</ele>
        <time>2019-05-09T19:57:28Z</time>
      </trkpt>
      <trkpt lat="44.70077" lon="5.64925">
        <ele>1290</ele>
        <time>2019-05-09T19:58:28Z</time>
      </trkpt>
      <trkpt lat="44.70014" lon="5.6501">
        <ele>1300</ele>
        <time>2019-05-09T19:59:28Z</time>
      </trkpt>
      <trkpt lat="44.69945" lon="5.65022">
        <ele>1296</ele>
        <time>2019-05-09T20:00:28Z</time>
      </trkpt>
      <trkpt lat="44.69846" lon="5.65074">
        <ele>1303</ele>
        <time>2019-05-09T20:01:28Z</time>
      </trkpt>
      <trkpt lat="44.69749" lon="5.65089">
        <ele>1308</ele>
        <time>2019-05-09T20:02:28Z</time>
      </trkpt>
      <trkpt lat="44.6968" lon="5.65095">
        <ele>1302</ele>
        <time>2019-05-09T20:03:28Z</time>
      </trkpt>
      <trkpt lat="44.69624" lon="5.65189">
        <ele>1319</ele>
        <time>2019-05-09T20:04:28Z</time>
      </trkpt>
      <trkpt lat="44.69445" lon="5.65289">
        <ele>1319</ele>
        <time>2019-05-09T20:05:28Z</time>
      </trkpt>
      <trkpt lat="44.69333" lon="5.65341">
        <ele>1320</ele>
        <time>2019-05-09T20:06:28Z</time>
      </trkpt>
      <trkpt lat="44.6922" lon="5.65368">
        <ele>1319</ele>
        <time>2019-05-09T20:07:28Z</time>
      </trkpt>
      <trkpt lat="44.69132" lon="5.65413">
        <ele>1318</ele>
        <time>2019-05-09T20:08:28Z</time>
      </trkpt>
      <trkpt lat="44.69108" lon="5.65535">
        <ele>1315</ele>
        <time>2019-05-09T20:09:28Z</time>
      </trkpt>
      <trkpt lat="44.69026" lon="5.65696">
        <ele>1305</ele>
        <time>2019-05-09T20:10:28Z</time>
      </trkpt>
      <trkpt lat="44.68951" lon="5.6585">
        <ele>1300</ele>
        <time>2019-05-09T20:11:28Z</time>
      </trkpt>
      <trkpt lat="44.68867" lon="5.65999">
        <ele>1280</ele>
        <time>2019-05-09T20:12:28Z</time>
      </trkpt>
      <trkpt lat="44.68826" lon="5.66184">
        <ele>1276</ele>
        <time>2019-05-09T20:13:28Z</time>
      </trkpt>
      <trkpt lat="44.68843" lon="5.66339">
        <ele>1263</ele>
        <time>2019-05-09T20:14:28Z</time>
      </trkpt>
      <trkpt lat="44.68912" lon="5.66378">
        <ele>1288</ele>
        <time>2019-05-09T20:15:28Z</time>
      </trkpt>
      <trkpt lat="44.68914" lon="5.66451">
        <ele>1274</ele>
        <time>2019-05-09T20:16:28Z</time>
      </trkpt>
      <trkpt lat="44.68901" lon="5.66539">
        <ele>1265</ele>
        <time>2019-05-09T20:17:28Z</time>
      </trkpt>
      <trkpt lat="44.68869" lon="5.66624">
        <ele>1249</ele>
        <time>2019-05-09T20:18:28Z</time>
      </trkpt>
      <trkpt lat="44.68843" lon="5.66673">
        <ele>1236</ele>
        <time>2019-05-09T20:19:28Z</time>
      </trkpt>
      <trkpt lat="44.68828" lon="5.66746">
        <ele>1222</ele>
        <time>2019-05-09T20:20:28Z</time>
      </trkpt>
      <trkpt lat="44.68944" lon="5.66776">
        <ele>1255</ele>
        <time>2019-05-09T20:21:28Z</time>
      </trkpt>
      <trkpt lat="44.68953" lon="5.66843">
        <ele>1244</ele>
        <time>2019-05-09T20:22:28Z</time>
      </trkpt>
      <trkpt lat="44.6889" lon="5.67092">
        <ele>1206</ele>
        <time>2019-05-09T20:23:28Z</time>
      </trkpt>
      <trkpt lat="44.68884" lon="5.67143">
        <ele>1191</ele>
        <time>2019-05-09T20:24:28Z</time>
      </trkpt>
      <trkpt lat="44.68935" lon="5.67144">
        <ele>1211</ele>
        <time>2019-05-09T20:25:28Z</time>
      </trkpt>
      <trkpt lat="44.6899" lon="5.67135">
        <ele>1214</ele>
        <time>2019-05-09T20:26:28Z</time>
      </trkpt>
      <trkpt lat="44.69049" lon="5.67081">
        <ele>1230</ele>
        <time>2019-05-09T20:27:28Z</time>
      </trkpt>
      <trkpt lat="44.69116" lon="5.67036">
        <ele>1241</ele>
        <time>2019-05-09T20:28:28Z</time>
      </trkpt>
      <trkpt lat="44.69157" lon="5.66998">
        <ele>1246</ele>
        <time>2019-05-09T20:29:28Z</time>
      </trkpt>
      <trkpt lat="44.69296" lon="5.66893">
        <ele>1268</ele>
        <time>2019-05-09T20:30:28Z</time>
      </trkpt>
      <trkpt lat="44.69343" lon="5.6685">
        <ele>1278</ele>
        <time>2019-05-09T20:31:28Z</time>
      </trkpt>
      <trkpt lat="44.69389" lon="5.66844">
        <ele>1279</ele>
        <time>2019-05-09T20:32:28Z</time>
      </trkpt>
      <trkpt lat="44.69422" lon="5.66824">
        <ele>1283</ele>
        <time>2019-05-09T20:33:28Z</time>
      </trkpt>
      <trkpt lat="44.69439" lon="5.66875">
        <ele>1287</ele>
        <time>2019-05-09T20:34:28Z</time>
      </trkpt>
      <trkpt lat="44.69425" lon="5.66947">
        <ele>1279</ele>
        <time>2019-05-09T20:35:28Z</time>
      </trkpt>
      <trkpt lat="44.69423" lon="5.67063">
        <ele>1294</ele>
        <time>2019-05-09T20:36:28Z</time>
      </trkpt>
      <trkpt lat="44.69403" lon="5.67187">
        <ele>1302</ele>
        <time>2019-05-09T20:37:28Z</time>
      </trkpt>
      <trkpt lat="44.69386" lon="5.67265">
        <ele>1304</ele>
        <time>2019-05-09T20:38:28Z</time>
      </trkpt>
      <trkpt lat="44.69386" lon="5.67313">
        <ele>1314</ele>
        <time>2019-05-09T20:39:28Z</time>
      </trkpt>
      <trkpt lat="44.69372" lon="5.67389">
        <ele>1319</ele>
        <time>2019-05-09T20:40:28Z</time>
      </trkpt>
      <trkpt lat="44.6933" lon="5.67501">
        <ele>1317</ele>
        <time>2019-05-09T20:41:28Z</time>
      </trkpt>
      <trkpt lat="44.69367" lon="5.67552">
        <ele>1319</ele>
        <time>2019-05-09T20:42:28Z</time>
      </trkpt>
      <trkpt lat="44.6943" lon="5.67514">
        <ele>1336</ele>
        <time>2019-05-09T20:43:28Z</time>
      </trkpt>
      <trkpt lat="44.6952" lon="5.67512">
        <ele>1339</ele>
        <time>2019-05-09T20:44:28Z</time>
      </trkpt>
      <trkpt lat="44.69597" lon="5.67496">
        <ele>1344</ele>
        <time>2019-05-09T20:45:28Z</time>
      </trkpt>
      <trkpt lat="44.69639" lon="5.67474">
        <ele>1342</ele>
        <time>2019-05-09T20:46:28Z</time>
      </trkpt>
      <trkpt lat="44.69736" lon="5.67375">
        <ele>1352</ele>
        <time>2019-05-09T20:47:28Z</time>
      </trkpt>
      <trkpt lat="44.69797" lon="5.67335">
        <ele>1354</ele>
        <time>2019-05-09T20:48:28Z</time>
      </trkpt>
      <trkpt lat="44.69876" lon="5.67335">
        <ele>1344</ele>
        <time>2019-05-09T20:49:28Z</time>
      </trkpt>
      <trkpt lat="44.69965" lon="5.67297">
        <ele>1345</ele>
        <time>2019-05-09T20:50:28Z</time>
      </trkpt>
      <trkpt lat="44.70108" lon="5.672">
        <ele>1352</ele>
        <time>2019-05-09T20:51:28Z</time>
      </trkpt>
      <trkpt lat="44.70179" lon="5.67115">
        <ele>1368</ele>
        <time>2019-05-09T20:52:28Z</time>
      </trkpt>
      <trkpt lat="44.70302" lon="5.67055">
        <ele>1365</ele>
        <time>2019-05-09T20:53:28Z</time>
      </trkpt>
      <trkpt lat="44.7038" lon="5.66963">
        <ele>1366</ele>
        <time>2019-05-09T20:54:28Z</time>
      </trkpt>
      <trkpt lat="44.7042" lon="5.66882">
        <ele>1366</ele>
        <time>2019-05-09T20:55:28Z</time>
      </trkpt>
      <trkpt lat="44.70365" lon="5.66808">
        <ele>1381</ele>
        <time>2019-05-09T20:56:28Z</time>
      </trkpt>
      <trkpt lat="44.70434" lon="5.66731">
        <ele>1374</ele>
        <time>2019-05-09T20:57:28Z</time>
      </trkpt>
      <trkpt lat="44.70566" lon="5.66646">
        <ele>1376</ele>
        <time>2019-05-09T20:58:28Z</time>
      </trkpt>
      <trkpt lat="44.70598" lon="5.66725">
        <ele>1366</ele>
        <time>2019-05-09T20:59:28Z</time>
      </trkpt>
      <trkpt lat="44.70592" lon="5.66772">
        <ele>1355</ele>
        <time>2019-05-09T21:00:28Z</time>
      </trkpt>
      <trkpt lat="44.70635" lon="5.66823">
        <ele>1362</ele>
        <time>2019-05-09T21:01:28Z</time>
      </trkpt>
      <trkpt lat="44.70641" lon="5.66862">
        <ele>1349</ele>
        <time>2019-05-09T21:02:28Z</time>
      </trkpt>
      <trkpt lat="44.70851" lon="5.66915">
        <ele>1377</ele>
        <time>2019-05-09T21:03:28Z</time>
      </trkpt>
      <trkpt lat="44.70855" lon="5.66958">
        <ele>1368</ele>
        <time>2019-05-09T21:04:28Z</time>
      </trkpt>
      <trkpt lat="44.70818" lon="5.67028">
        <ele>1344</ele>
        <time>2019-05-09T21:05:28Z</time>
      </trkpt>
      <trkpt lat="44.71016" lon="5.67027">
        <ele>1361</ele>
        <time>2019-05-09T21:06:28Z</time>
      </trkpt>
      <trkpt lat="44.71102" lon="5.67036">
        <ele>1351</ele>
        <time>2019-05-09T21:07:28Z</time>
      </trkpt>
      <trkpt lat="44.71114" lon="5.66994">
        <ele>1365</ele>
        <time>2019-05-09T21:08:28Z</time>
      </trkpt>
      <trkpt lat="44.712" lon="5.66897">
        <ele>1357</ele>
        <time>2019-05-09T21:09:28Z</time>
      </trkpt>
      <trkpt lat="44.71201" lon="5.66839">
        <ele>1369</ele>
        <time>2019-05-09T21:10:28Z</time>
      </trkpt>
      <trkpt lat="44.71236" lon="5.66745">
        <ele>1369</ele>
        <time>2019-05-09T21:11:28Z</time>
      </trkpt>
      <trkpt lat="44.71266" lon="5.66666">
        <ele>1373</ele>
        <time>2019-05-09T21:12:28Z</time>
      </trkpt>
      <trkpt lat="44.71348" lon="5.66534">
        <ele>1382</ele>
        <time>2019-05-09T21:13:28Z</time>
      </trkpt>
      <trkpt lat="44.71357" lon="5.66482">
        <ele>1396</ele>
        <time>2019-05-09T21:14:28Z</time>
      </trkpt>
      <trkpt lat="44.71432" lon="5.66547">
        <ele>1390</ele>
        <time>2019-05-09T21:15:28Z</time>
      </trkpt>
      <trkpt lat="44.71445" lon="5.66698">
        <ele>1373</ele>
        <time>2019-05-09T21:16:28Z</time>
      </trkpt>
      <trkpt lat="44.71493" lon="5.66801">
        <ele>1382</ele>
        <time>2019-05-09T21:17:28Z</time>
      </trkpt>
      <trkpt lat="44.71509" lon="5.66855">
        <ele>1376</ele>
        <time>2019-05-09T21:18:28Z</time>
      </trkpt>
      <trkpt lat="44.715" lon="5.66897">
        <ele>1366</ele>
        <time>2019-05-09T21:19:28Z</time>
      </trkpt>
      <trkpt lat="44.71482" lon="5.66949">
        <ele>1343</ele>
        <time>2019-05-09T21:20:28Z</time>
      </trkpt>
      <trkpt lat="44.71539" lon="5.66969">
        <ele>1356</ele>
        <time>2019-05-09T21:21:28Z</time>
      </trkpt>
      <trkpt lat="44.71687" lon="5.67039">
        <ele>1338</ele>
        <time>2019-05-09T21:22:28Z</time>
      </trkpt>
      <trkpt lat="44.71752" lon="5.67057">
        <ele>1332</ele>
        <time>2019-05-09T21:23:28Z</time>
      </trkpt>
      <trkpt lat="44.71825" lon="5.67023">
        <ele>1333</ele>
        <time>2019-05-09T21:24:28Z</time>
      </trkpt>
      <trkpt lat="44.71942" lon="5.67068">
        <ele>1311</ele>
        <time>2019-05-09T21:25:28Z</time>
      </trkpt>
      <trkpt lat="44.72001" lon="5.67124">
        <ele>1299</ele>
        <time>2019-05-09T21:26:28Z</time>
      </trkpt>
      <trkpt lat="44.72061" lon="5.67169">
        <ele>1288</ele>
        <time>2019-05-09T21:27:28Z</time>
      </trkpt>
      <trkpt lat="44.72122" lon="5.67175">
        <ele>1285</ele>
        <time>2019-05-09T21:28:28Z</time>
      </trkpt>
      <trkpt lat="44.72186" lon="5.67164">
        <ele>1287</ele>
        <time>2019-05-09T21:29:28Z</time>
      </trkpt>
      <trkpt lat="44.72254" lon="5.6729">
        <ele>1254</ele>
        <time>2019-05-09T21:30:28Z</time>
      </trkpt>
      <trkpt lat="44.72307" lon="5.67312">
        <ele>1249</ele>
        <time>2019-05-09T21:31:28Z</time>
      </trkpt>
      <trkpt lat="44.724" lon="5.67276">
        <ele>1257</ele>
        <time>2019-05-09T21:32:28Z</time>
      </trkpt>
      <trkpt lat="44.72461" lon="5.67348">
        <ele>1238</ele>
        <time>2019-05-09T21:33:28Z</time>
      </trkpt>
      <trkpt lat="44.72551" lon="5.67371">
        <ele>1238</ele>
        <time>2019-05-09T21:34:28Z</time>
      </trkpt>
      <trkpt lat="44.72632" lon="5.67424">
        <ele>1232</ele>
        <time>2019-05-09T21:35:28Z</time>
      </trkpt>
      <trkpt lat="44.72706" lon="5.67503">
        <ele>1222</ele>
        <time>2019-05-09T21:36:28Z</time>
      </trkpt>
      <trkpt lat="44.72787" lon="5.67575">
        <ele>1215</ele>
        <time>2019-05-09T21:37:28Z</time>
      </trkpt>
      <trkpt lat="44.72848" lon="5.67633">
        <ele>1209</ele>
        <time>2019-05-09T21:38:28Z</time>
      </trkpt>
      <trkpt lat="44.72892" lon="5.67656">
        <ele>1209</ele>
        <time>2019-05-09T21:39:28Z</time>
      </trkpt>
      <trkpt lat="44.72854" lon="5.67664">
        <ele>1199</ele>
        <time>2019-05-09T21:40:28Z</time>
      </trkpt>
      <trkpt lat="44.72746" lon="5.67626">
        <ele>1193</ele>
        <time>2019-05-09T21:41:28Z</time>
      </trkpt>
      <trkpt lat="44.72672" lon="5.6762">
        <ele>1188</ele>
        <time>2019-05-09T21:42:28Z</time>
      </trkpt>
      <trkpt lat="44.72615" lon="5.6764">
        <ele>1184</ele>
        <time>2019-05-09T21:43:28Z</time>
      </trkpt>
      <trkpt lat="44.72551" lon="5.67674">
        <ele>1178</ele>
        <time>2019-05-09T21:44:28Z</time>
      </trkpt>
      <trkpt lat="44.72489" lon="5.67718">
        <ele>1176</ele>
        <time>2019-05-09T21:45:28Z</time>
      </trkpt>
      <trkpt lat="44.72448" lon="5.67759">
        <ele>1175</ele>
        <time>2019-05-09T21:46:28Z</time>
      </trkpt>
      <trkpt lat="44.72573" lon="5.67772">
        <ele>1171</ele>
        <time>2019-05-09T21:47:28Z</time>
      </trkpt>
      <trkpt lat="44.72802" lon="5.67811">
        <ele>1158</ele>
        <time>2019-05-09T21:48:28Z</time>
      </trkpt>
      <trkpt lat="44.72897" lon="5.67864">
        <ele>1152</ele>
        <time>2019-05-09T21:49:28Z</time>
      </trkpt>
      <trkpt lat="44.73004" lon="5.67961">
        <ele>1145</ele>
        <time>2019-05-09T21:50:28Z</time>
      </trkpt>
      <trkpt lat="44.73152" lon="5.6805">
        <ele>1134</ele>
        <time>2019-05-09T21:51:28Z</time>
      </trkpt>
      <trkpt lat="44.73251" lon="5.67956">
        <ele>1151</ele>
        <time>2019-05-09T21:52:28Z</time>
      </trkpt>
      <trkpt lat="44.73279" lon="5.68048">
        <ele>1127</ele>
        <time>2019-05-09T21:53:28Z</time>
      </trkpt>
      <trkpt lat="44.73338" lon="5.6808">
        <ele>1120</ele>
        <time>2019-05-09T21:54:28Z</time>
      </trkpt>
      <trkpt lat="44.73457" lon="5.68113">
        <ele>1115</ele>
        <time>2019-05-09T21:55:28Z</time>
      </trkpt>
      <trkpt lat="44.73519" lon="5.68122">
        <ele>1109</ele>
        <time>2019-05-09T21:56:28Z</time>
      </trkpt>
      <trkpt lat="44.73659" lon="5.68024">
        <ele>1111</ele>
        <time>2019-05-09T21:57:28Z</time>
      </trkpt>
      <trkpt lat="44.73773" lon="5.68017">
        <ele>1085</ele>
        <time>2019-05-09T21:58:28Z</time>
      </trkpt>
      <trkpt lat="44.73797" lon="5.67967">
        <ele>1089</ele>
        <time>2019-05-09T21:59:28Z</time>
      </trkpt>
      <trkpt lat="44.73797" lon="5.67896">
        <ele>1099</ele>
        <time>2019-05-09T22:00:28Z</time>
      </trkpt>
      <trkpt lat="44.73883" lon="5.67761">
        <ele>1094</ele>
        <time>2019-05-09T22:01:28Z</time>
      </trkpt>
      <trkpt lat="44.7393" lon="5.67848">
        <ele>1076</ele>
        <time>2019-05-09T22:02:28Z</time>
      </trkpt>
      <trkpt lat="44.73965" lon="5.67985">
        <ele>1058</ele>
        <time>2019-05-09T22:03:28Z</time>
      </trkpt>
      <trkpt lat="44.74043" lon="5.6805">
        <ele>1050</ele>
        <time>2019-05-09T22:04:28Z</time>
      </trkpt>
      <trkpt lat="44.74139" lon="5.68093">
        <ele>1045</ele>
        <time>2019-05-09T22:05:28Z</time>
      </trkpt>
      <trkpt lat="44.74246" lon="5.68102">
        <ele>1042</ele>
        <time>2019-05-09T22:06:28Z</time>
      </trkpt>
      <trkpt lat="44.74366" lon="5.68134">
        <ele>1029</ele>
        <time>2019-05-09T22:07:28Z</time>
      </trkpt>
      <trkpt lat="44.74411" lon="5.68138">
        <ele>1026</ele>
        <time>2019-05-09T22:08:28Z</time>
      </trkpt>
      <trkpt lat="44.74476" lon="5.68069">
        <ele>1027</ele>
        <time>2019-05-09T22:09:28Z</time>
      </trkpt>
      <trkpt lat="44.74553" lon="5.68012">
        <ele>1017</ele>
        <time>2019-05-09T22:10:28Z</time>
      </trkpt>
      <trkpt lat="44.74626" lon="5.67893">
        <ele>1028</ele>
        <time>2019-05-09T22:11:28Z</time>
      </trkpt>
      <trkpt lat="44.74734" lon="5.67853">
        <ele>1007</ele>
        <time>2019-05-09T22:12:28Z</time>
      </trkpt>
      <trkpt lat="44.74799" lon="5.67783">
        <ele>1010</ele>
        <time>2019-05-09T22:13:28Z</time>
      </trkpt>
      <trkpt lat="44.74902" lon="5.67629">
        <ele>998</ele>
        <time>2019-05-09T22:14:28Z</time>
      </trkpt>
      <trkpt lat="44.74961" lon="5.67499">
        <ele>1000</ele>
        <time>2019-05-09T22:15:28Z</time>
      </trkpt>
      <trkpt lat="44.75046" lon="5.67405">
        <ele>978</ele>
        <time>2019-05-09T22:16:28Z</time>
      </trkpt>
      <trkpt lat="44.75145" lon="5.67256">
        <ele>964</ele>
        <time>2019-05-09T22:17:28Z</time>
      </trkpt>
      <trkpt lat="44.75236" lon="5.67144">
        <ele>956</ele>
        <time>2019-05-09T22:18:28Z</time>
      </trkpt>
      <trkpt lat="44.75298" lon="5.67075">
        <ele>949</ele>
        <time>2019-05-09T22:19:28Z</time>
      </trkpt>
      <trkpt lat="44.75349" lon="5.67007">
        <ele>945</ele>
        <time>2019-05-09T22:20:28Z</time>
      </trkpt>
      <trkpt lat="44.75366" lon="5.66947">
        <ele>942</ele>
        <time>2019-05-09T22:21:28Z</time>
      </trkpt>
      <trkpt lat="44.75373" lon="5.66888">
        <ele>940</ele>
        <time>2019-05-09T22:22:28Z</time>
      </trkpt>
      <trkpt lat="44.75382" lon="5.66908">
        <ele>938</ele>
        <time>2019-05-09T22:23:28Z</time>
      </trkpt>
      <trkpt lat="44.75388" lon="5.66945">
        <ele>936</ele>
        <time>2019-05-09T22:24:28Z</time>
      </trkpt>
      <trkpt lat="44.75387" lon="5.6701">
        <ele>934</ele>
        <time>2019-05-09T22:25:28Z</time>
      </trkpt>
      <trkpt lat="44.75381" lon="5.67081">
        <ele>929</ele>
        <time>2019-05-09T22:26:28Z</time>
      </trkpt>
      <trkpt lat="44.75375" lon="5.67119">
        <ele>926</ele>
        <time>2019-05-09T22:27:28Z</time>
      </trkpt>
      <trkpt lat="44.75343" lon="5.67237">
        <ele>922</ele>
        <time>2019-05-09T22:28:28Z</time>
      </trkpt>
      <trkpt lat="44.75315" lon="5.67306">
        <ele>921</ele>
        <time>2019-05-09T22:29:28Z</time>
      </trkpt>
      <trkpt lat="44.75254" lon="5.67487">
        <ele>910</ele>
        <time>2019-05-09T22:30:28Z</time>
      </trkpt>
      <trkpt lat="44.752" lon="5.67624">
        <ele>901</ele>
        <time>2019-05-09T22:31:28Z</time>
      </trkpt>
      <trkpt lat="44.7518" lon="5.67649">
        <ele>900</ele>
        <time>2019-05-09T22:32:28Z</time>
      </trkpt>
      <trkpt lat="44.75133" lon="5.67686">
        <ele>899</ele>
        <time>2019-05-09T22:33:28Z</time>
      </trkpt>
      <trkpt lat="44.75131" lon="5.67701">
        <ele>896</ele>
        <time>2019-05-09T22:34:28Z</time>
      </trkpt>
      <trkpt lat="44.75153" lon="5.67705">
        <ele>893</ele>
        <time>2019-05-09T22:35:28Z</time>
      </trkpt>
      <trkpt lat="44.75304" lon="5.67651">
        <ele>879</ele>
        <time>2019-05-09T22:36:28Z</time>
      </trkpt>
      <trkpt lat="44.75423" lon="5.67575">
        <ele>872</ele>
        <time>2019-05-09T22:37:28Z</time>
      </trkpt>
      <trkpt lat="44.75472" lon="5.67483">
        <ele>873</ele>
        <time>2019-05-09T22:38:28Z</time>
      </trkpt>
      <trkpt lat="44.75517" lon="5.6746">
        <ele>871</ele>
        <time>2019-05-09T22:39:28Z</time>
      </trkpt>
      <trkpt lat="44.75627" lon="5.6759">
        <ele>851</ele>
        <time>2019-05-09T22:40:28Z</time>
      </trkpt>
      <trkpt lat="44.75797" lon="5.67615">
        <ele>845</ele>
        <time>2019-05-09T22:41:28Z</time>
      </trkpt>
      <trkpt lat="44.75783" lon="5.67833">
        <ele>833</ele>
        <time>2019-05-09T22:42:28Z</time>
      </trkpt>
      <trkpt lat="44.75699" lon="5.6801">
        <ele>827</ele>
        <time>2019-05-09T22:43:28Z</time>
      </trkpt>
      <trkpt lat="44.75656" lon="5.68039">
        <ele>821</ele>
        <time>2019-05-09T22:44:28Z</time>
      </trkpt>
      <trkpt lat="44.75571" lon="5.68015">
        <ele>820</ele>
        <time>2019-05-09T22:45:28Z</time>
      </trkpt>
      <trkpt lat="44.75508" lon="5.68032">
        <ele>815</ele>
        <time>2019-05-09T22:46:28Z</time>
      </trkpt>
      <trkpt lat="44.75439" lon="5.6799">
        <ele>818</ele>
        <time>2019-05-09T22:47:28Z</time>
      </trkpt>
      <trkpt lat="44.75394" lon="5.68005">
        <ele>815</ele>
        <time>2019-05-09T22:48:28Z</time>
      </trkpt>
      <trkpt lat="44.75399" lon="5.68066">
        <ele>814</ele>
        <time>2019-05-09T22:49:28Z</time>
      </trkpt>
      <trkpt lat="44.755" lon="5.68169">
        <ele>817</ele>
        <time>2019-05-09T22:50:28Z</time>
      </trkpt>
      <trkpt lat="44.7567" lon="5.68259">
        <ele>810</ele>
        <time>2019-05-09T22:51:28Z</time>
      </trkpt>
      <trkpt lat="44.75717" lon="5.6836">
        <ele>820</ele>
        <time>2019-05-09T22:52:28Z</time>
      </trkpt>
      <trkpt lat="44.75827" lon="5.68427">
        <ele>811</ele>
        <time>2019-05-09T22:53:28Z</time>
      </trkpt>
      <trkpt lat="44.7591" lon="5.68596">
        <ele>809</ele>
        <time>2019-05-09T22:54:28Z</time>
      </trkpt>
      <trkpt lat="44.75914" lon="5.68743">
        <ele>814</ele>
        <time>2019-05-09T22:55:28Z</time>
      </trkpt>
      <trkpt lat="44.75955" lon="5.68941">
        <ele>809</ele>
        <time>2019-05-09T22:56:28Z</time>
      </trkpt>
      <trkpt lat="44.7602" lon="5.6913">
        <ele>809</ele>
        <time>2019-05-09T22:57:28Z</time>
      </trkpt>
      <trkpt lat="44.76092" lon="5.6921">
        <ele>806</ele>
        <time>2019-05-09T22:58:28Z</time>
      </trkpt>
      <trkpt lat="44.76148" lon="5.69387">
        <ele>810</ele>
        <time>2019-05-09T22:59:28Z</time>
      </trkpt>
      <trkpt lat="44.76171" lon="5.69434">
        <ele>809</ele>
        <time>2019-05-09T23:00:28Z</time>
      </trkpt>
      <trkpt lat="44.76356" lon="5.69618">
        <ele>806</ele>
        <time>2019-05-09T23:01:28Z</time>
      </trkpt>
      <trkpt lat="44.76455" lon="5.69757">
        <ele>805</ele>
        <time>2019-05-09T23:02:28Z</time>
      </trkpt>
      <trkpt lat="44.76512" lon="5.69785">
        <ele>801</ele>
        <time>2019-05-09T23:03:28Z</time>
      </trkpt>
      <trkpt lat="44.76798" lon="5.69784">
        <ele>794</ele>
        <time>2019-05-09T23:04:28Z</time>
      </trkpt>
      <trkpt lat="44.76971" lon="5.69881">
        <ele>789</ele>
        <time>2019-05-09T23:05:28Z</time>
      </trkpt>
      <trkpt lat="44.76986" lon="5.69997">
        <ele>788</ele>
        <time>2019-05-09T23:06:28Z</time>
      </trkpt>
      <trkpt lat="44.76989" lon="5.70092">
        <ele>788</ele>
        <time>2019-05-09T23:07:28Z</time>
      </trkpt>
      <trkpt lat="44.77026" lon="5.70271">
        <ele>790</ele>
        <time>2019-05-09T23:08:28Z</time>
      </trkpt>
      <trkpt lat="44.77027" lon="5.70354">
        <ele>790</ele>
        <time>2019-05-09T23:09:28Z</time>
      </trkpt>
      <trkpt lat="44.77021" lon="5.70455">
        <ele>787</ele>
        <time>2019-05-09T23:10:28Z</time>
      </trkpt>
      <trkpt lat="44.77025" lon="5.70657">
        <ele>781</ele>
        <time>2019-05-09T23:11:28Z</time>
      </trkpt>
      <trkpt lat="44.7699" lon="5.70778">
        <ele>778</ele>
        <time>2019-05-09T23:12:28Z</time>
      </trkpt>
      <trkpt lat="44.77002" lon="5.70935">
        <ele>764</ele>
        <time>2019-05-09T23:13:28Z</time>
      </trkpt>
      <trkpt lat="44.76995" lon="5.71148">
        <ele>754</ele>
        <time>2019-05-09T23:14:28Z</time>
      </trkpt>
      <trkpt lat="44.77026" lon="5.71182">
        <ele>746</ele>
        <time>2019-05-09T23:15:28Z</time>
      </trkpt>
      <trkpt lat="44.77082" lon="5.71157">
        <ele>740</ele>
        <time>2019-05-09T23:16:28Z</time>
      </trkpt>
      <trkpt lat="44.77159" lon="5.71106">
        <ele>734</ele>
        <time>2019-05-09T23:17:28Z</time>
      </trkpt>
      <trkpt lat="44.7723" lon="5.71171">
        <ele>737</ele>
        <time>2019-05-09T23:18:28Z</time>
      </trkpt>
      <trkpt lat="44.77199" lon="5.71254">
        <ele>742</ele>
        <time>2019-05-09T23:19:28Z</time>
      </trkpt>
      <trkpt lat="44.77141" lon="5.7131">
        <ele>741</ele>
        <time>2019-05-09T23:20:28Z</time>
      </trkpt>
      <trkpt lat="44.77128" lon="5.71348">
        <ele>743</ele>
        <time>2019-05-09T23:21:28Z</time>
      </trkpt>
      <trkpt lat="44.77123" lon="5.71462">
        <ele>756</ele>
        <time>2019-05-09T23:22:28Z</time>
      </trkpt>
      <trkpt lat="44.77107" lon="5.71552">
        <ele>759</ele>
        <time>2019-05-09T23:23:28Z</time>
      </trkpt>
      <trkpt lat="44.77087" lon="5.71613">
        <ele>759</ele>
        <time>2019-05-09T23:24:28Z</time>
      </trkpt>
      <trkpt lat="44.77081" lon="5.7166">
        <ele>761</ele>
        <time>2019-05-09T23:25:28Z</time>
      </trkpt>
      <trkpt lat="44.7708" lon="5.71759">
        <ele>766</ele>
        <time>2019-05-09T23:26:28Z</time>
      </trkpt>
      <trkpt lat="44.77102" lon="5.71729">
        <ele>770</ele>
        <time>2019-05-09T23:27:28Z</time>
      </trkpt>
      <trkpt lat="44.7711" lon="5.71653">
        <ele>769</ele>
        <time>2019-05-09T23:28:28Z</time>
      </trkpt>
      <trkpt lat="44.77157" lon="5.71579">
        <ele>778</ele>
        <time>2019-05-09T23:29:28Z</time>
      </trkpt>
      <trkpt lat="44.77186" lon="5.715">
        <ele>778</ele>
        <time>2019-05-09T23:30:28Z</time>
      </trkpt>
      <trkpt lat="44.77221" lon="5.71485">
        <ele>783</ele>
        <time>2019-05-09T23:31:28Z</time>
      </trkpt>
      <trkpt lat="44.77207" lon="5.71565">
        <ele>788</ele>
        <time>2019-05-09T23:32:28Z</time>
      </trkpt>
      <trkpt lat="44.77207" lon="5.71664">
        <ele>798</ele>
        <time>2019-05-09T23:33:28Z</time>
      </trkpt>
      <trkpt lat="44.77204" lon="5.71729">
        <ele>799</ele>
        <time>2019-05-09T23:34:28Z</time>
      </trkpt>
      <trkpt lat="44.77216" lon="5.7179">
        <ele>800</ele>
        <time>2019-05-09T23:35:28Z</time>
      </trkpt>
      <trkpt lat="44.77263" lon="5.71821">
        <ele>810</ele>
        <time>2019-05-09T23:36:28Z</time>
      </trkpt>
      <trkpt lat="44.77278" lon="5.71915">
        <ele>812</ele>
        <time>2019-05-09T23:37:28Z</time>
      </trkpt>
      <trkpt lat="44.77258" lon="5.72059">
        <ele>818</ele>
        <time>2019-05-09T23:38:28Z</time>
      </trkpt>
      <trkpt lat="44.77233" lon="5.72118">
        <ele>818</ele>
        <time>2019-05-09T23:39:28Z</time>
      </trkpt>
      <trkpt lat="44.77204" lon="5.72178">
        <ele>818</ele>
        <time>2019-05-09T23:40:28Z</time>
      </trkpt>
      <trkpt lat="44.77213" lon="5.72292">
        <ele>827</ele>
        <time>2019-05-09T23:41:28Z</time>
      </trkpt>
      <trkpt lat="44.772" lon="5.72378">
        <ele>829</ele>
        <time>2019-05-09T23:42:28Z</time>
      </trkpt>
      <trkpt lat="44.77278" lon="5.72579">
        <ele>848</ele>
        <time>2019-05-09T23:43:28Z</time>
      </trkpt>
      <trkpt lat="44.77304" lon="5.72741">
        <ele>854</ele>
        <time>2019-05-09T23:44:28Z</time>
      </trkpt>
      <trkpt lat="44.77315" lon="5.72844">
        <ele>864</ele>
        <time>2019-05-09T23:45:28Z</time>
      </trkpt>
      <trkpt lat="44.77297" lon="5.72934">
        <ele>867</ele>
        <time>2019-05-09T23:46:28Z</time>
      </trkpt>
      <trkpt lat="44.77283" lon="5.72981">
        <ele>871</ele>
        <time>2019-05-09T23:47:28Z</time>
      </trkpt>
      <trkpt lat="44.77251" lon="5.73037">
        <ele>875</ele>
        <time>2019-05-09T23:48:28Z</time>
      </trkpt>
      <trkpt lat="44.77217" lon="5.73064">
        <ele>877</ele>
        <time>2019-05-09T23:49:28Z</time>
      </trkpt>
      <trkpt lat="44.77185" lon="5.731">
        <ele>881</ele>
        <time>2019-05-09T23:50:28Z</time>
      </trkpt>
      <trkpt lat="44.77269" lon="5.73095">
        <ele>888</ele>
        <time>2019-05-09T23:51:28Z</time>
      </trkpt>
      <trkpt lat="44.77323" lon="5.73071">
        <ele>892</ele>
        <time>2019-05-09T23:52:28Z</time>
      </trkpt>
      <trkpt lat="44.7741" lon="5.72985">
        <ele>897</ele>
        <time>2019-05-09T23:53:28Z</time>
      </trkpt>
      <trkpt lat="44.77454" lon="5.7295">
        <ele>897</ele>
        <time>2019-05-09T23:54:28Z</time>
      </trkpt>
      <trkpt lat="44.77472" lon="5.73004">
        <ele>897</ele>
        <time>2019-05-09T23:55:28Z</time>
      </trkpt>
      <trkpt lat="44.77482" lon="5.73084">
        <ele>895</ele>
        <time>2019-05-09T23:56:28Z</time>
      </trkpt>
      <trkpt lat="44.77509" lon="5.73152">
        <ele>894</ele>
        <time>2019-05-09T23:57:28Z</time>
      </trkpt>
      <trkpt lat="44.77556" lon="5.73228">
        <ele>883</ele>
        <time>2019-05-09T23:58:28Z</time>
      </trkpt>
      <trkpt lat="44.77572" lon="5.73277">
        <ele>878</ele>
        <time>2019-05-09T23:59:28Z</time>
      </trkpt>
      <trkpt lat="44.77555" lon="5.73409">
        <ele>878</ele>
        <time>2019-05-10T00:00:28Z</time>
      </trkpt>
      <trkpt lat="44.77643" lon="5.73663">
        <ele>860</ele>
        <time>2019-05-10T00:01:28Z</time>
      </trkpt>
      <trkpt lat="44.77747" lon="5.73818">
        <ele>845</ele>
        <time>2019-05-10T00:02:28Z</time>
      </trkpt>
      <trkpt lat="44.77753" lon="5.73852">
        <ele>844</ele>
        <time>2019-05-10T00:03:28Z</time>
      </trkpt>
      <trkpt lat="44.77752" lon="5.73893">
        <ele>845</ele>
        <time>2019-05-10T00:04:28Z</time>
      </trkpt>
      <trkpt lat="44.77866" lon="5.74013">
        <ele>830</ele>
        <time>2019-05-10T00:05:28Z</time>
      </trkpt>
      <trkpt lat="44.77933" lon="5.74127">
        <ele>830</ele>
        <time>2019-05-10T00:06:28Z</time>
      </trkpt>
      <trkpt lat="44.78102" lon="5.74165">
        <ele>843</ele>
        <time>2019-05-10T00:07:28Z</time>
      </trkpt>
      <trkpt lat="44.78239" lon="5.74062">
        <ele>849</ele>
        <time>2019-05-10T00:08:28Z</time>
      </trkpt>
      <trkpt lat="44.78275" lon="5.74009">
        <ele>849</ele>
        <time>2019-05-10T00:09:28Z</time>
      </trkpt>
      <trkpt lat="44.78309" lon="5.74226">
        <ele>854</ele>
        <time>2019-05-10T00:10:28Z</time>
      </trkpt>
      <trkpt lat="44.7835" lon="5.74583">
        <ele>852</ele>
        <time>2019-05-10T00:11:28Z</time>
      </trkpt>
      <trkpt lat="44.78343" lon="5.74664">
        <ele>851</ele>
        <time>2019-05-10T00:12:28Z</time>
      </trkpt>
      <trkpt lat="44.78317" lon="5.74733">
        <ele>848</ele>
        <time>2019-05-10T00:13:28Z</time>
      </trkpt>
      <trkpt lat="44.78208" lon="5.74895">
        <ele>852</ele>
        <time>2019-05-10T00:14:28Z</time>
      </trkpt>
      <trkpt lat="44.78202" lon="5.74933">
        <ele>852</ele>
        <time>2019-05-10T00:15:28Z</time>
      </trkpt>
      <trkpt lat="44.78235" lon="5.75029">
        <ele>849</ele>
        <time>2019-05-10T00:16:28Z</time>
      </trkpt>
      <trkpt lat="44.78279" lon="5.75143">
        <ele>846</ele>
        <time>2019-05-10T00:17:28Z</time>
      </trkpt>
      <trkpt lat="44.78325" lon="5.75233">
        <ele>845</ele>
        <time>2019-05-10T00:18:28Z</time>
      </trkpt>
      <trkpt lat="44.78317" lon="5.75309">
        <ele>849</ele>
        <time>2019-05-10T00:19:28Z</time>
      </trkpt>
      <trkpt lat="44.78409" lon="5.75314">
        <ele>845</ele>
        <time>2019-05-10T00:20:28Z</time>
      </trkpt>
      <trkpt lat="44.78501" lon="5.75265">
        <ele>838</ele>
        <time>2019-05-10T00:21:28Z</time>
      </trkpt>
      <trkpt lat="44.78551" lon="5.7528">
        <ele>838</ele>
        <time>2019-05-10T00:22:28Z</time>
      </trkpt>
      <trkpt lat="44.786" lon="5.75401">
        <ele>841</ele>
        <time>2019-05-10T00:23:28Z</time>
      </trkpt>
      <trkpt lat="44.78701" lon="5.75476">
        <ele>832</ele>
        <time>2019-05-10T00:24:28Z</time>
      </trkpt>
      <trkpt lat="44.78813" lon="5.75567">
        <ele>826</ele>
        <time>2019-05-10T00:25:28Z</time>
      </trkpt>
      <trkpt lat="44.78801" lon="5.75644">
        <ele>827</ele>
        <time>2019-05-10T00:26:28Z</time>
      </trkpt>
      <trkpt lat="44.78783" lon="5.75697">
        <ele>828</ele>
        <time>2019-05-10T00:27:28Z</time>
      </trkpt>
      <trkpt lat="44.78729" lon="5.75832">
        <ele>826</ele>
        <time>2019-05-10T00:28:28Z</time>
      </trkpt>
      <trkpt lat="44.7881" lon="5.75814">
        <ele>812</ele>
        <time>2019-05-10T00:29:28Z</time>
      </trkpt>
      <trkpt lat="44.78848" lon="5.75765">
        <ele>814</ele>
        <time>2019-05-10T00:30:28Z</time>
      </trkpt>
      <trkpt lat="44.78902" lon="5.75722">
        <ele>808</ele>
        <time>2019-05-10T00:31:28Z</time>
      </trkpt>
      <trkpt lat="44.78904" lon="5.7576">
        <ele>804</ele>
        <time>2019-05-10T00:32:28Z</time>
      </trkpt>
      <trkpt lat="44.78864" lon="5.75796">
        <ele>806</ele>
        <time>2019-05-10T00:33:28Z</time>
      </trkpt>
      <trkpt lat="44.78824" lon="5.75863">
        <ele>805</ele>
        <time>2019-05-10T00:34:28Z</time>
      </trkpt>
      <trkpt lat="44.78837" lon="5.75909">
        <ele>801</ele>
        <time>2019-05-10T00:35:28Z</time>
      </trkpt>
      <trkpt lat="44.7898" lon="5.75943">
        <ele>805</ele>
        <time>2019-05-10T00:36:28Z</time>
      </trkpt>
      <trkpt lat="44.79058" lon="5.75913">
        <ele>804</ele>
        <time>2019-05-10T00:37:28Z</time>
      </trkpt>
      <trkpt lat="44.79234" lon="5.75971">
        <ele>819</ele>
        <time>2019-05-10T00:38:28Z</time>
      </trkpt>
      <trkpt lat="44.79327" lon="5.75931">
        <ele>828</ele>
        <time>2019-05-10T00:39:28Z</time>
      </trkpt>
      <trkpt lat="44.79456" lon="5.75804">
        <ele>828</ele>
        <time>2019-05-10T00:40:28Z</time>
      </trkpt>
      <trkpt lat="44.79527" lon="5.7571">
        <ele>819</ele>
        <time>2019-05-10T00:41:28Z</time>
      </trkpt>
      <trkpt lat="44.79624" lon="5.75661">
        <ele>818</ele>
        <time>2019-05-10T00:42:28Z</time>
      </trkpt>
      <trkpt lat="44.79676" lon="5.75579">
        <ele>812</ele>
        <time>2019-05-10T00:43:28Z</time>
      </trkpt>
      <trkpt lat="44.79768" lon="5.75506">
        <ele>805</ele>
        <time>2019-05-10T00:44:28Z</time>
      </trkpt>
      <trkpt lat="44.80029" lon="5.75464">
        <ele>803</ele>
        <time>2019-05-10T00:45:28Z</time>
      </trkpt>
      <trkpt lat="44.80145" lon="5.7547">
        <ele>796</ele>
        <time>2019-05-10T00:46:28Z</time>
      </trkpt>
      <trkpt lat="44.80216" lon="5.75418">
        <ele>794</ele>
        <time>2019-05-10T00:47:28Z</time>
      </trkpt>
      <trkpt lat="44.80281" lon="5.75355">
        <ele>801</ele>
        <time>2019-05-10T00:48:28Z</time>
      </trkpt>
      <trkpt lat="44.80324" lon="5.75242">
        <ele>803</ele>
        <time>2019-05-10T00:49:28Z</time>
      </trkpt>
      <trkpt lat="44.80363" lon="5.75158">
        <ele>805</ele>
        <time>2019-05-10T00:50:28Z</time>
      </trkpt>
      <trkpt lat="44.80408" lon="5.75097">
        <ele>810</ele>
        <time>2019-05-10T00:51:28Z</time>
      </trkpt>
      <trkpt lat="44.80462" lon="5.75006">
        <ele>810</ele>
        <time>2019-05-10T00:52:28Z</time>
      </trkpt>
      <trkpt lat="44.80576" lon="5.74985">
        <ele>818</ele>
        <time>2019-05-10T00:53:28Z</time>
      </trkpt>
      <trkpt lat="44.80709" lon="5.74875">
        <ele>816</ele>
        <time>2019-05-10T00:54:28Z</time>
      </trkpt>
      <trkpt lat="44.80808" lon="5.74836">
        <ele>812</ele>
        <time>2019-05-10T00:55:28Z</time>
      </trkpt>
      <trkpt lat="44.80916" lon="5.74818">
        <ele>806</ele>
        <time>2019-05-10T00:56:28Z</time>
      </trkpt>
      <trkpt lat="44.81073" lon="5.74918">
        <ele>798</ele>
        <time>2019-05-10T00:57:28Z</time>
      </trkpt>
      <trkpt lat="44.8126" lon="5.74821">
        <ele>787</ele>
        <time>2019-05-10T00:58:28Z</time>
      </trkpt>
      <trkpt lat="44.81366" lon="5.75079">
        <ele>779</ele>
        <time>2019-05-10T00:59:28Z</time>
      </trkpt>
      <trkpt lat="44.81435" lon="5.75103">
        <ele>775</ele>
        <time>2019-05-10T01:00:28Z</time>
      </trkpt>
      <trkpt lat="44.81695" lon="5.75063">
        <ele>778</ele>
        <time>2019-05-10T01:01:28Z</time>
      </trkpt>
      <trkpt lat="44.8171" lon="5.75142">
        <ele>780</ele>
        <time>2019-05-10T01:02:28Z</time>
      </trkpt>
    </trkseg>
  </trk>
</gpx>